<?xml version="1.0" encoding="UTF-8" standalone="no" ?>
<gpx xmlns="http://www.topografix.com/GPX/1/1" xmlns:xsi="http://www.w3.org/2001/XMLSchema-instance" xsi:schemaLocation="http://www.topografix.com/GPX/1/1 http://www.topografix.com/GPX/1/1/gpx.xsd" version="1.1" creator="VisuGPX - https://www.visugpx.com">
  <metadata>
    <name>St Nizier-Charvet-Bois des Travers-Vouillants-La Poya</name>
    <desc><![CDATA[Descente du matin]]></desc>
  </metadata>
  <trk>
    <name><![CDATA[Bois des travers]]></name>
    <desc><![CDATA[]]></desc>
    <trkseg>
      <trkpt lat="45.17063" lon="5.62747">
        <ele>1238</ele>
        <time>2011-07-07T05:57:53Z</time>
      </trkpt>
      <trkpt lat="45.17068" lon="5.62749">
        <ele>1236</ele>
        <time>2011-07-07T05:57:55Z</time>
      </trkpt>
      <trkpt lat="45.17067" lon="5.62765">
        <ele>1242</ele>
        <time>2011-07-07T05:57:56Z</time>
      </trkpt>
      <trkpt lat="45.17066" lon="5.62773">
        <ele>1242</ele>
        <time>2011-07-07T05:57:57Z</time>
      </trkpt>
      <trkpt lat="45.17065" lon="5.62782">
        <ele>1243</ele>
        <time>2011-07-07T05:57:58Z</time>
      </trkpt>
      <trkpt lat="45.17066" lon="5.62793">
        <ele>1243</ele>
        <time>2011-07-07T05:58:00Z</time>
      </trkpt>
      <trkpt lat="45.17067" lon="5.62805">
        <ele>1242</ele>
        <time>2011-07-07T05:58:02Z</time>
      </trkpt>
      <trkpt lat="45.17069" lon="5.62818">
        <ele>1244</ele>
        <time>2011-07-07T05:58:03Z</time>
      </trkpt>
      <trkpt lat="45.17065" lon="5.62829">
        <ele>1242</ele>
        <time>2011-07-07T05:58:04Z</time>
      </trkpt>
      <trkpt lat="45.17066" lon="5.6284">
        <ele>1240</ele>
        <time>2011-07-07T05:58:05Z</time>
      </trkpt>
      <trkpt lat="45.17065" lon="5.62851">
        <ele>1239</ele>
        <time>2011-07-07T05:58:06Z</time>
      </trkpt>
      <trkpt lat="45.17065" lon="5.62864">
        <ele>1240</ele>
        <time>2011-07-07T05:58:07Z</time>
      </trkpt>
      <trkpt lat="45.17068" lon="5.62881">
        <ele>1239</ele>
        <time>2011-07-07T05:58:08Z</time>
      </trkpt>
      <trkpt lat="45.17068" lon="5.62896">
        <ele>1238</ele>
        <time>2011-07-07T05:58:09Z</time>
      </trkpt>
      <trkpt lat="45.1707" lon="5.62908">
        <ele>1238</ele>
        <time>2011-07-07T05:58:10Z</time>
      </trkpt>
      <trkpt lat="45.17067" lon="5.62917">
        <ele>1237</ele>
        <time>2011-07-07T05:58:11Z</time>
      </trkpt>
      <trkpt lat="45.17068" lon="5.62927">
        <ele>1237</ele>
        <time>2011-07-07T05:58:12Z</time>
      </trkpt>
      <trkpt lat="45.17072" lon="5.62945">
        <ele>1235</ele>
        <time>2011-07-07T05:58:13Z</time>
      </trkpt>
      <trkpt lat="45.17071" lon="5.62955">
        <ele>1233</ele>
        <time>2011-07-07T05:58:14Z</time>
      </trkpt>
      <trkpt lat="45.1707" lon="5.62963">
        <ele>1229</ele>
        <time>2011-07-07T05:58:15Z</time>
      </trkpt>
      <trkpt lat="45.17069" lon="5.62977">
        <ele>1228</ele>
        <time>2011-07-07T05:58:16Z</time>
      </trkpt>
      <trkpt lat="45.17072" lon="5.62987">
        <ele>1228</ele>
        <time>2011-07-07T05:58:17Z</time>
      </trkpt>
      <trkpt lat="45.17079" lon="5.62999">
        <ele>1225</ele>
        <time>2011-07-07T05:58:18Z</time>
      </trkpt>
      <trkpt lat="45.17082" lon="5.63008">
        <ele>1227</ele>
        <time>2011-07-07T05:58:19Z</time>
      </trkpt>
      <trkpt lat="45.17087" lon="5.63016">
        <ele>1228</ele>
        <time>2011-07-07T05:58:20Z</time>
      </trkpt>
      <trkpt lat="45.17089" lon="5.63022">
        <ele>1227</ele>
        <time>2011-07-07T05:58:21Z</time>
      </trkpt>
      <trkpt lat="45.17094" lon="5.63033">
        <ele>1226</ele>
        <time>2011-07-07T05:58:22Z</time>
      </trkpt>
      <trkpt lat="45.17099" lon="5.63043">
        <ele>1225</ele>
        <time>2011-07-07T05:58:23Z</time>
      </trkpt>
      <trkpt lat="45.17104" lon="5.63052">
        <ele>1225</ele>
        <time>2011-07-07T05:58:24Z</time>
      </trkpt>
      <trkpt lat="45.1711" lon="5.63062">
        <ele>1224</ele>
        <time>2011-07-07T05:58:25Z</time>
      </trkpt>
      <trkpt lat="45.17117" lon="5.63065">
        <ele>1227</ele>
        <time>2011-07-07T05:58:26Z</time>
      </trkpt>
      <trkpt lat="45.17123" lon="5.63069">
        <ele>1228</ele>
        <time>2011-07-07T05:58:27Z</time>
      </trkpt>
      <trkpt lat="45.17128" lon="5.63072">
        <ele>1228</ele>
        <time>2011-07-07T05:58:28Z</time>
      </trkpt>
      <trkpt lat="45.17134" lon="5.63075">
        <ele>1229</ele>
        <time>2011-07-07T05:58:29Z</time>
      </trkpt>
      <trkpt lat="45.17143" lon="5.63069">
        <ele>1229</ele>
        <time>2011-07-07T05:58:30Z</time>
      </trkpt>
      <trkpt lat="45.1715" lon="5.63068">
        <ele>1229</ele>
        <time>2011-07-07T05:58:31Z</time>
      </trkpt>
      <trkpt lat="45.17158" lon="5.63066">
        <ele>1229</ele>
        <time>2011-07-07T05:58:32Z</time>
      </trkpt>
      <trkpt lat="45.17166" lon="5.6306">
        <ele>1229</ele>
        <time>2011-07-07T05:58:33Z</time>
      </trkpt>
      <trkpt lat="45.17173" lon="5.63054">
        <ele>1232</ele>
        <time>2011-07-07T05:58:34Z</time>
      </trkpt>
      <trkpt lat="45.17181" lon="5.63052">
        <ele>1231</ele>
        <time>2011-07-07T05:58:35Z</time>
      </trkpt>
      <trkpt lat="45.1719" lon="5.63053">
        <ele>1230</ele>
        <time>2011-07-07T05:58:36Z</time>
      </trkpt>
      <trkpt lat="45.17198" lon="5.63052">
        <ele>1230</ele>
        <time>2011-07-07T05:58:37Z</time>
      </trkpt>
      <trkpt lat="45.17205" lon="5.63059">
        <ele>1229</ele>
        <time>2011-07-07T05:58:38Z</time>
      </trkpt>
      <trkpt lat="45.17215" lon="5.63062">
        <ele>1228</ele>
        <time>2011-07-07T05:58:39Z</time>
      </trkpt>
      <trkpt lat="45.17221" lon="5.63069">
        <ele>1230</ele>
        <time>2011-07-07T05:58:40Z</time>
      </trkpt>
      <trkpt lat="45.1723" lon="5.63072">
        <ele>1228</ele>
        <time>2011-07-07T05:58:41Z</time>
      </trkpt>
      <trkpt lat="45.17235" lon="5.63079">
        <ele>1227</ele>
        <time>2011-07-07T05:58:42Z</time>
      </trkpt>
      <trkpt lat="45.17238" lon="5.63084">
        <ele>1226</ele>
        <time>2011-07-07T05:58:43Z</time>
      </trkpt>
      <trkpt lat="45.17238" lon="5.63096">
        <ele>1226</ele>
        <time>2011-07-07T05:58:44Z</time>
      </trkpt>
      <trkpt lat="45.17236" lon="5.63111">
        <ele>1225</ele>
        <time>2011-07-07T05:58:45Z</time>
      </trkpt>
      <trkpt lat="45.1724" lon="5.63116">
        <ele>1224</ele>
        <time>2011-07-07T05:58:46Z</time>
      </trkpt>
      <trkpt lat="45.17244" lon="5.63127">
        <ele>1223</ele>
        <time>2011-07-07T05:58:48Z</time>
      </trkpt>
      <trkpt lat="45.1725" lon="5.63137">
        <ele>1221</ele>
        <time>2011-07-07T05:58:50Z</time>
      </trkpt>
      <trkpt lat="45.17255" lon="5.63146">
        <ele>1222</ele>
        <time>2011-07-07T05:58:52Z</time>
      </trkpt>
      <trkpt lat="45.17259" lon="5.63156">
        <ele>1221</ele>
        <time>2011-07-07T05:58:54Z</time>
      </trkpt>
      <trkpt lat="45.17262" lon="5.63161">
        <ele>1222</ele>
        <time>2011-07-07T05:58:56Z</time>
      </trkpt>
      <trkpt lat="45.1727" lon="5.63172">
        <ele>1222</ele>
        <time>2011-07-07T05:58:59Z</time>
      </trkpt>
      <trkpt lat="45.17276" lon="5.6318">
        <ele>1220</ele>
        <time>2011-07-07T05:59:01Z</time>
      </trkpt>
      <trkpt lat="45.17279" lon="5.6319">
        <ele>1220</ele>
        <time>2011-07-07T05:59:03Z</time>
      </trkpt>
      <trkpt lat="45.17282" lon="5.63197">
        <ele>1219</ele>
        <time>2011-07-07T05:59:04Z</time>
      </trkpt>
      <trkpt lat="45.17285" lon="5.6321">
        <ele>1219</ele>
        <time>2011-07-07T05:59:06Z</time>
      </trkpt>
      <trkpt lat="45.17288" lon="5.63222">
        <ele>1219</ele>
        <time>2011-07-07T05:59:08Z</time>
      </trkpt>
      <trkpt lat="45.1729" lon="5.6323">
        <ele>1219</ele>
        <time>2011-07-07T05:59:09Z</time>
      </trkpt>
      <trkpt lat="45.17293" lon="5.63235">
        <ele>1219</ele>
        <time>2011-07-07T05:59:10Z</time>
      </trkpt>
      <trkpt lat="45.17294" lon="5.63242">
        <ele>1219</ele>
        <time>2011-07-07T05:59:11Z</time>
      </trkpt>
      <trkpt lat="45.17296" lon="5.63249">
        <ele>1219</ele>
        <time>2011-07-07T05:59:12Z</time>
      </trkpt>
      <trkpt lat="45.17288" lon="5.6325">
        <ele>1219</ele>
        <time>2011-07-07T05:59:14Z</time>
      </trkpt>
      <trkpt lat="45.17293" lon="5.63245">
        <ele>1219</ele>
        <time>2011-07-07T05:59:16Z</time>
      </trkpt>
      <trkpt lat="45.17294" lon="5.63252">
        <ele>1219</ele>
        <time>2011-07-07T05:59:18Z</time>
      </trkpt>
      <trkpt lat="45.17299" lon="5.63254">
        <ele>1219</ele>
        <time>2011-07-07T05:59:20Z</time>
      </trkpt>
      <trkpt lat="45.17306" lon="5.63258">
        <ele>1219</ele>
        <time>2011-07-07T05:59:22Z</time>
      </trkpt>
      <trkpt lat="45.1731" lon="5.63261">
        <ele>1220</ele>
        <time>2011-07-07T05:59:24Z</time>
      </trkpt>
      <trkpt lat="45.17293" lon="5.63309">
        <ele>1219</ele>
        <time>2011-07-07T05:59:31Z</time>
      </trkpt>
      <trkpt lat="45.17291" lon="5.63316">
        <ele>1219</ele>
        <time>2011-07-07T05:59:32Z</time>
      </trkpt>
      <trkpt lat="45.17292" lon="5.63324">
        <ele>1219</ele>
        <time>2011-07-07T05:59:33Z</time>
      </trkpt>
      <trkpt lat="45.17299" lon="5.63338">
        <ele>1219</ele>
        <time>2011-07-07T05:59:36Z</time>
      </trkpt>
      <trkpt lat="45.17298" lon="5.63351">
        <ele>1219</ele>
        <time>2011-07-07T05:59:37Z</time>
      </trkpt>
      <trkpt lat="45.17296" lon="5.63366">
        <ele>1219</ele>
        <time>2011-07-07T05:59:39Z</time>
      </trkpt>
      <trkpt lat="45.17294" lon="5.63375">
        <ele>1219</ele>
        <time>2011-07-07T05:59:40Z</time>
      </trkpt>
      <trkpt lat="45.1729" lon="5.63384">
        <ele>1219</ele>
        <time>2011-07-07T05:59:41Z</time>
      </trkpt>
      <trkpt lat="45.17288" lon="5.63393">
        <ele>1218</ele>
        <time>2011-07-07T05:59:42Z</time>
      </trkpt>
      <trkpt lat="45.17288" lon="5.634">
        <ele>1218</ele>
        <time>2011-07-07T05:59:43Z</time>
      </trkpt>
      <trkpt lat="45.17287" lon="5.63414">
        <ele>1218</ele>
        <time>2011-07-07T05:59:44Z</time>
      </trkpt>
      <trkpt lat="45.17292" lon="5.63411">
        <ele>1217</ele>
        <time>2011-07-07T05:59:45Z</time>
      </trkpt>
      <trkpt lat="45.17296" lon="5.63404">
        <ele>1215</ele>
        <time>2011-07-07T05:59:46Z</time>
      </trkpt>
      <trkpt lat="45.17299" lon="5.6341">
        <ele>1214</ele>
        <time>2011-07-07T05:59:48Z</time>
      </trkpt>
      <trkpt lat="45.17304" lon="5.63415">
        <ele>1212</ele>
        <time>2011-07-07T05:59:49Z</time>
      </trkpt>
      <trkpt lat="45.17303" lon="5.63422">
        <ele>1211</ele>
        <time>2011-07-07T05:59:50Z</time>
      </trkpt>
      <trkpt lat="45.17305" lon="5.63434">
        <ele>1211</ele>
        <time>2011-07-07T05:59:51Z</time>
      </trkpt>
      <trkpt lat="45.17306" lon="5.63441">
        <ele>1210</ele>
        <time>2011-07-07T05:59:52Z</time>
      </trkpt>
      <trkpt lat="45.17306" lon="5.63448">
        <ele>1210</ele>
        <time>2011-07-07T05:59:53Z</time>
      </trkpt>
      <trkpt lat="45.17307" lon="5.63457">
        <ele>1210</ele>
        <time>2011-07-07T05:59:54Z</time>
      </trkpt>
      <trkpt lat="45.17308" lon="5.63463">
        <ele>1209</ele>
        <time>2011-07-07T05:59:55Z</time>
      </trkpt>
      <trkpt lat="45.17308" lon="5.63471">
        <ele>1209</ele>
        <time>2011-07-07T05:59:56Z</time>
      </trkpt>
      <trkpt lat="45.17309" lon="5.6348">
        <ele>1209</ele>
        <time>2011-07-07T05:59:57Z</time>
      </trkpt>
      <trkpt lat="45.17312" lon="5.63489">
        <ele>1208</ele>
        <time>2011-07-07T05:59:58Z</time>
      </trkpt>
      <trkpt lat="45.17313" lon="5.63496">
        <ele>1208</ele>
        <time>2011-07-07T05:59:59Z</time>
      </trkpt>
      <trkpt lat="45.17314" lon="5.63504">
        <ele>1207</ele>
        <time>2011-07-07T06:00:00Z</time>
      </trkpt>
      <trkpt lat="45.17314" lon="5.63511">
        <ele>1207</ele>
        <time>2011-07-07T06:00:01Z</time>
      </trkpt>
      <trkpt lat="45.17315" lon="5.63517">
        <ele>1207</ele>
        <time>2011-07-07T06:00:02Z</time>
      </trkpt>
      <trkpt lat="45.17316" lon="5.63524">
        <ele>1207</ele>
        <time>2011-07-07T06:00:03Z</time>
      </trkpt>
      <trkpt lat="45.17309" lon="5.63529">
        <ele>1206</ele>
        <time>2011-07-07T06:00:04Z</time>
      </trkpt>
      <trkpt lat="45.17316" lon="5.6355">
        <ele>1205</ele>
        <time>2011-07-07T06:00:05Z</time>
      </trkpt>
      <trkpt lat="45.1732" lon="5.63568">
        <ele>1204</ele>
        <time>2011-07-07T06:00:06Z</time>
      </trkpt>
      <trkpt lat="45.17323" lon="5.63575">
        <ele>1204</ele>
        <time>2011-07-07T06:00:07Z</time>
      </trkpt>
      <trkpt lat="45.1733" lon="5.63587">
        <ele>1204</ele>
        <time>2011-07-07T06:00:08Z</time>
      </trkpt>
      <trkpt lat="45.17331" lon="5.63598">
        <ele>1204</ele>
        <time>2011-07-07T06:00:09Z</time>
      </trkpt>
      <trkpt lat="45.17334" lon="5.63607">
        <ele>1204</ele>
        <time>2011-07-07T06:00:10Z</time>
      </trkpt>
      <trkpt lat="45.17337" lon="5.63615">
        <ele>1203</ele>
        <time>2011-07-07T06:00:11Z</time>
      </trkpt>
      <trkpt lat="45.1734" lon="5.63624">
        <ele>1203</ele>
        <time>2011-07-07T06:00:12Z</time>
      </trkpt>
      <trkpt lat="45.17344" lon="5.63628">
        <ele>1201</ele>
        <time>2011-07-07T06:00:13Z</time>
      </trkpt>
      <trkpt lat="45.17355" lon="5.63631">
        <ele>1200</ele>
        <time>2011-07-07T06:00:14Z</time>
      </trkpt>
      <trkpt lat="45.17362" lon="5.63648">
        <ele>1199</ele>
        <time>2011-07-07T06:00:15Z</time>
      </trkpt>
      <trkpt lat="45.17375" lon="5.6364">
        <ele>1198</ele>
        <time>2011-07-07T06:00:16Z</time>
      </trkpt>
      <trkpt lat="45.17383" lon="5.63642">
        <ele>1197</ele>
        <time>2011-07-07T06:00:17Z</time>
      </trkpt>
      <trkpt lat="45.17387" lon="5.63654">
        <ele>1195</ele>
        <time>2011-07-07T06:00:18Z</time>
      </trkpt>
      <trkpt lat="45.17393" lon="5.63663">
        <ele>1195</ele>
        <time>2011-07-07T06:00:19Z</time>
      </trkpt>
      <trkpt lat="45.17394" lon="5.6367">
        <ele>1193</ele>
        <time>2011-07-07T06:00:21Z</time>
      </trkpt>
      <trkpt lat="45.17397" lon="5.63674">
        <ele>1189</ele>
        <time>2011-07-07T06:00:22Z</time>
      </trkpt>
      <trkpt lat="45.17402" lon="5.63671">
        <ele>1186</ele>
        <time>2011-07-07T06:00:24Z</time>
      </trkpt>
      <trkpt lat="45.17402" lon="5.63677">
        <ele>1181</ele>
        <time>2011-07-07T06:00:33Z</time>
      </trkpt>
      <trkpt lat="45.174" lon="5.6367">
        <ele>1178</ele>
        <time>2011-07-07T06:00:39Z</time>
      </trkpt>
      <trkpt lat="45.17436" lon="5.63657">
        <ele>1172</ele>
        <time>2011-07-07T06:01:44Z</time>
      </trkpt>
      <trkpt lat="45.17464" lon="5.63647">
        <ele>1173</ele>
        <time>2011-07-07T06:01:47Z</time>
      </trkpt>
      <trkpt lat="45.17489" lon="5.63642">
        <ele>1169</ele>
        <time>2011-07-07T06:01:50Z</time>
      </trkpt>
      <trkpt lat="45.17511" lon="5.63634">
        <ele>1167</ele>
        <time>2011-07-07T06:01:53Z</time>
      </trkpt>
      <trkpt lat="45.17533" lon="5.63631">
        <ele>1163</ele>
        <time>2011-07-07T06:01:56Z</time>
      </trkpt>
      <trkpt lat="45.17539" lon="5.63632">
        <ele>1162</ele>
        <time>2011-07-07T06:01:57Z</time>
      </trkpt>
      <trkpt lat="45.17561" lon="5.6363">
        <ele>1162</ele>
        <time>2011-07-07T06:02:00Z</time>
      </trkpt>
      <trkpt lat="45.17596" lon="5.6364">
        <ele>1158</ele>
        <time>2011-07-07T06:02:04Z</time>
      </trkpt>
      <trkpt lat="45.17639" lon="5.63639">
        <ele>1155</ele>
        <time>2011-07-07T06:02:09Z</time>
      </trkpt>
      <trkpt lat="45.17697" lon="5.63649">
        <ele>1153</ele>
        <time>2011-07-07T06:02:17Z</time>
      </trkpt>
      <trkpt lat="45.17719" lon="5.63645">
        <ele>1152</ele>
        <time>2011-07-07T06:02:20Z</time>
      </trkpt>
      <trkpt lat="45.1774" lon="5.63638">
        <ele>1148</ele>
        <time>2011-07-07T06:02:23Z</time>
      </trkpt>
      <trkpt lat="45.17759" lon="5.63631">
        <ele>1148</ele>
        <time>2011-07-07T06:02:26Z</time>
      </trkpt>
      <trkpt lat="45.17777" lon="5.63653">
        <ele>1145</ele>
        <time>2011-07-07T06:02:33Z</time>
      </trkpt>
      <trkpt lat="45.17777" lon="5.63666">
        <ele>1141</ele>
        <time>2011-07-07T06:02:34Z</time>
      </trkpt>
      <trkpt lat="45.17777" lon="5.63678">
        <ele>1140</ele>
        <time>2011-07-07T06:02:35Z</time>
      </trkpt>
      <trkpt lat="45.17777" lon="5.63688">
        <ele>1137</ele>
        <time>2011-07-07T06:02:36Z</time>
      </trkpt>
      <trkpt lat="45.1778" lon="5.63696">
        <ele>1135</ele>
        <time>2011-07-07T06:02:37Z</time>
      </trkpt>
      <trkpt lat="45.17782" lon="5.63706">
        <ele>1135</ele>
        <time>2011-07-07T06:02:38Z</time>
      </trkpt>
      <trkpt lat="45.17782" lon="5.63716">
        <ele>1136</ele>
        <time>2011-07-07T06:02:39Z</time>
      </trkpt>
      <trkpt lat="45.17783" lon="5.63727">
        <ele>1136</ele>
        <time>2011-07-07T06:02:40Z</time>
      </trkpt>
      <trkpt lat="45.17782" lon="5.63739">
        <ele>1135</ele>
        <time>2011-07-07T06:02:41Z</time>
      </trkpt>
      <trkpt lat="45.17784" lon="5.63749">
        <ele>1134</ele>
        <time>2011-07-07T06:02:42Z</time>
      </trkpt>
      <trkpt lat="45.17785" lon="5.6376">
        <ele>1135</ele>
        <time>2011-07-07T06:02:43Z</time>
      </trkpt>
      <trkpt lat="45.17787" lon="5.6377">
        <ele>1134</ele>
        <time>2011-07-07T06:02:45Z</time>
      </trkpt>
      <trkpt lat="45.17794" lon="5.63784">
        <ele>1132</ele>
        <time>2011-07-07T06:02:47Z</time>
      </trkpt>
      <trkpt lat="45.17798" lon="5.63792">
        <ele>1132</ele>
        <time>2011-07-07T06:02:48Z</time>
      </trkpt>
      <trkpt lat="45.17801" lon="5.638">
        <ele>1131</ele>
        <time>2011-07-07T06:02:49Z</time>
      </trkpt>
      <trkpt lat="45.17804" lon="5.63806">
        <ele>1131</ele>
        <time>2011-07-07T06:02:50Z</time>
      </trkpt>
      <trkpt lat="45.17808" lon="5.63811">
        <ele>1131</ele>
        <time>2011-07-07T06:02:51Z</time>
      </trkpt>
      <trkpt lat="45.1781" lon="5.63817">
        <ele>1131</ele>
        <time>2011-07-07T06:02:52Z</time>
      </trkpt>
      <trkpt lat="45.17811" lon="5.63829">
        <ele>1130</ele>
        <time>2011-07-07T06:02:53Z</time>
      </trkpt>
      <trkpt lat="45.17814" lon="5.63836">
        <ele>1130</ele>
        <time>2011-07-07T06:02:54Z</time>
      </trkpt>
      <trkpt lat="45.17816" lon="5.63843">
        <ele>1130</ele>
        <time>2011-07-07T06:02:56Z</time>
      </trkpt>
      <trkpt lat="45.17815" lon="5.63854">
        <ele>1130</ele>
        <time>2011-07-07T06:02:57Z</time>
      </trkpt>
      <trkpt lat="45.17815" lon="5.6386">
        <ele>1130</ele>
        <time>2011-07-07T06:02:58Z</time>
      </trkpt>
      <trkpt lat="45.17812" lon="5.63874">
        <ele>1130</ele>
        <time>2011-07-07T06:03:00Z</time>
      </trkpt>
      <trkpt lat="45.1781" lon="5.63882">
        <ele>1130</ele>
        <time>2011-07-07T06:03:01Z</time>
      </trkpt>
      <trkpt lat="45.17811" lon="5.6389">
        <ele>1130</ele>
        <time>2011-07-07T06:03:02Z</time>
      </trkpt>
      <trkpt lat="45.17811" lon="5.63901">
        <ele>1130</ele>
        <time>2011-07-07T06:03:04Z</time>
      </trkpt>
      <trkpt lat="45.17814" lon="5.63916">
        <ele>1130</ele>
        <time>2011-07-07T06:03:06Z</time>
      </trkpt>
      <trkpt lat="45.17811" lon="5.63922">
        <ele>1130</ele>
        <time>2011-07-07T06:03:08Z</time>
      </trkpt>
      <trkpt lat="45.1781" lon="5.63929">
        <ele>1130</ele>
        <time>2011-07-07T06:03:14Z</time>
      </trkpt>
      <trkpt lat="45.17808" lon="5.63938">
        <ele>1130</ele>
        <time>2011-07-07T06:03:17Z</time>
      </trkpt>
      <trkpt lat="45.17808" lon="5.63945">
        <ele>1129</ele>
        <time>2011-07-07T06:03:19Z</time>
      </trkpt>
      <trkpt lat="45.17808" lon="5.63953">
        <ele>1129</ele>
        <time>2011-07-07T06:03:21Z</time>
      </trkpt>
      <trkpt lat="45.17808" lon="5.63962">
        <ele>1129</ele>
        <time>2011-07-07T06:03:23Z</time>
      </trkpt>
      <trkpt lat="45.17805" lon="5.63971">
        <ele>1128</ele>
        <time>2011-07-07T06:03:25Z</time>
      </trkpt>
      <trkpt lat="45.17805" lon="5.6398">
        <ele>1128</ele>
        <time>2011-07-07T06:03:27Z</time>
      </trkpt>
      <trkpt lat="45.17806" lon="5.6399">
        <ele>1127</ele>
        <time>2011-07-07T06:03:30Z</time>
      </trkpt>
      <trkpt lat="45.17804" lon="5.63999">
        <ele>1128</ele>
        <time>2011-07-07T06:03:35Z</time>
      </trkpt>
      <trkpt lat="45.178" lon="5.64009">
        <ele>1129</ele>
        <time>2011-07-07T06:03:38Z</time>
      </trkpt>
      <trkpt lat="45.17799" lon="5.64016">
        <ele>1129</ele>
        <time>2011-07-07T06:03:41Z</time>
      </trkpt>
      <trkpt lat="45.17803" lon="5.64023">
        <ele>1128</ele>
        <time>2011-07-07T06:03:44Z</time>
      </trkpt>
      <trkpt lat="45.1781" lon="5.64022">
        <ele>1127</ele>
        <time>2011-07-07T06:03:46Z</time>
      </trkpt>
      <trkpt lat="45.17815" lon="5.64024">
        <ele>1127</ele>
        <time>2011-07-07T06:03:48Z</time>
      </trkpt>
      <trkpt lat="45.1782" lon="5.64028">
        <ele>1126</ele>
        <time>2011-07-07T06:03:50Z</time>
      </trkpt>
      <trkpt lat="45.17824" lon="5.64031">
        <ele>1125</ele>
        <time>2011-07-07T06:03:51Z</time>
      </trkpt>
      <trkpt lat="45.17832" lon="5.64034">
        <ele>1124</ele>
        <time>2011-07-07T06:03:53Z</time>
      </trkpt>
      <trkpt lat="45.17837" lon="5.64035">
        <ele>1121</ele>
        <time>2011-07-07T06:03:54Z</time>
      </trkpt>
      <trkpt lat="45.17846" lon="5.6404">
        <ele>1118</ele>
        <time>2011-07-07T06:03:56Z</time>
      </trkpt>
      <trkpt lat="45.17855" lon="5.6404">
        <ele>1114</ele>
        <time>2011-07-07T06:03:58Z</time>
      </trkpt>
      <trkpt lat="45.17862" lon="5.64041">
        <ele>1113</ele>
        <time>2011-07-07T06:04:00Z</time>
      </trkpt>
      <trkpt lat="45.17867" lon="5.64041">
        <ele>1113</ele>
        <time>2011-07-07T06:04:02Z</time>
      </trkpt>
      <trkpt lat="45.17875" lon="5.6404">
        <ele>1114</ele>
        <time>2011-07-07T06:04:04Z</time>
      </trkpt>
      <trkpt lat="45.17879" lon="5.64037">
        <ele>1114</ele>
        <time>2011-07-07T06:04:05Z</time>
      </trkpt>
      <trkpt lat="45.17876" lon="5.64045">
        <ele>1120</ele>
        <time>2011-07-07T06:04:09Z</time>
      </trkpt>
      <trkpt lat="45.17874" lon="5.64051">
        <ele>1120</ele>
        <time>2011-07-07T06:04:10Z</time>
      </trkpt>
      <trkpt lat="45.17879" lon="5.64052">
        <ele>1119</ele>
        <time>2011-07-07T06:04:13Z</time>
      </trkpt>
      <trkpt lat="45.17884" lon="5.6405">
        <ele>1119</ele>
        <time>2011-07-07T06:04:14Z</time>
      </trkpt>
      <trkpt lat="45.1789" lon="5.64049">
        <ele>1120</ele>
        <time>2011-07-07T06:04:17Z</time>
      </trkpt>
      <trkpt lat="45.17898" lon="5.64048">
        <ele>1120</ele>
        <time>2011-07-07T06:04:20Z</time>
      </trkpt>
      <trkpt lat="45.17904" lon="5.64046">
        <ele>1120</ele>
        <time>2011-07-07T06:04:22Z</time>
      </trkpt>
      <trkpt lat="45.1791" lon="5.64048">
        <ele>1120</ele>
        <time>2011-07-07T06:04:25Z</time>
      </trkpt>
      <trkpt lat="45.17916" lon="5.64044">
        <ele>1120</ele>
        <time>2011-07-07T06:04:27Z</time>
      </trkpt>
      <trkpt lat="45.17926" lon="5.64044">
        <ele>1118</ele>
        <time>2011-07-07T06:04:30Z</time>
      </trkpt>
      <trkpt lat="45.17932" lon="5.64046">
        <ele>1117</ele>
        <time>2011-07-07T06:04:33Z</time>
      </trkpt>
      <trkpt lat="45.1794" lon="5.64041">
        <ele>1117</ele>
        <time>2011-07-07T06:04:35Z</time>
      </trkpt>
      <trkpt lat="45.17947" lon="5.64045">
        <ele>1116</ele>
        <time>2011-07-07T06:04:38Z</time>
      </trkpt>
      <trkpt lat="45.17952" lon="5.64046">
        <ele>1117</ele>
        <time>2011-07-07T06:04:40Z</time>
      </trkpt>
      <trkpt lat="45.17964" lon="5.6404">
        <ele>1115</ele>
        <time>2011-07-07T06:04:42Z</time>
      </trkpt>
      <trkpt lat="45.1797" lon="5.64041">
        <ele>1116</ele>
        <time>2011-07-07T06:04:44Z</time>
      </trkpt>
      <trkpt lat="45.17974" lon="5.64043">
        <ele>1116</ele>
        <time>2011-07-07T06:04:46Z</time>
      </trkpt>
      <trkpt lat="45.17982" lon="5.64044">
        <ele>1117</ele>
        <time>2011-07-07T06:04:48Z</time>
      </trkpt>
      <trkpt lat="45.17988" lon="5.64043">
        <ele>1118</ele>
        <time>2011-07-07T06:04:50Z</time>
      </trkpt>
      <trkpt lat="45.17994" lon="5.64043">
        <ele>1118</ele>
        <time>2011-07-07T06:04:52Z</time>
      </trkpt>
      <trkpt lat="45.17999" lon="5.64042">
        <ele>1119</ele>
        <time>2011-07-07T06:04:54Z</time>
      </trkpt>
      <trkpt lat="45.18004" lon="5.64042">
        <ele>1120</ele>
        <time>2011-07-07T06:04:56Z</time>
      </trkpt>
      <trkpt lat="45.1801" lon="5.64041">
        <ele>1121</ele>
        <time>2011-07-07T06:04:59Z</time>
      </trkpt>
      <trkpt lat="45.18014" lon="5.64037">
        <ele>1121</ele>
        <time>2011-07-07T06:05:00Z</time>
      </trkpt>
      <trkpt lat="45.18021" lon="5.64038">
        <ele>1122</ele>
        <time>2011-07-07T06:05:02Z</time>
      </trkpt>
      <trkpt lat="45.18028" lon="5.64039">
        <ele>1121</ele>
        <time>2011-07-07T06:05:05Z</time>
      </trkpt>
      <trkpt lat="45.18033" lon="5.64038">
        <ele>1121</ele>
        <time>2011-07-07T06:05:07Z</time>
      </trkpt>
      <trkpt lat="45.18038" lon="5.64038">
        <ele>1121</ele>
        <time>2011-07-07T06:05:09Z</time>
      </trkpt>
      <trkpt lat="45.18043" lon="5.64039">
        <ele>1121</ele>
        <time>2011-07-07T06:05:11Z</time>
      </trkpt>
      <trkpt lat="45.18047" lon="5.64035">
        <ele>1121</ele>
        <time>2011-07-07T06:05:12Z</time>
      </trkpt>
      <trkpt lat="45.18053" lon="5.64032">
        <ele>1121</ele>
        <time>2011-07-07T06:05:14Z</time>
      </trkpt>
      <trkpt lat="45.18057" lon="5.64028">
        <ele>1121</ele>
        <time>2011-07-07T06:05:15Z</time>
      </trkpt>
      <trkpt lat="45.18062" lon="5.64025">
        <ele>1120</ele>
        <time>2011-07-07T06:05:17Z</time>
      </trkpt>
      <trkpt lat="45.18066" lon="5.64023">
        <ele>1120</ele>
        <time>2011-07-07T06:05:19Z</time>
      </trkpt>
      <trkpt lat="45.1807" lon="5.64027">
        <ele>1121</ele>
        <time>2011-07-07T06:05:21Z</time>
      </trkpt>
      <trkpt lat="45.18076" lon="5.64026">
        <ele>1121</ele>
        <time>2011-07-07T06:05:23Z</time>
      </trkpt>
      <trkpt lat="45.18078" lon="5.64034">
        <ele>1121</ele>
        <time>2011-07-07T06:05:27Z</time>
      </trkpt>
      <trkpt lat="45.18081" lon="5.6404">
        <ele>1121</ele>
        <time>2011-07-07T06:05:30Z</time>
      </trkpt>
      <trkpt lat="45.18085" lon="5.64042">
        <ele>1121</ele>
        <time>2011-07-07T06:05:32Z</time>
      </trkpt>
      <trkpt lat="45.1809" lon="5.64045">
        <ele>1120</ele>
        <time>2011-07-07T06:05:35Z</time>
      </trkpt>
      <trkpt lat="45.18094" lon="5.64051">
        <ele>1121</ele>
        <time>2011-07-07T06:05:37Z</time>
      </trkpt>
      <trkpt lat="45.18099" lon="5.64055">
        <ele>1121</ele>
        <time>2011-07-07T06:05:40Z</time>
      </trkpt>
      <trkpt lat="45.18104" lon="5.64059">
        <ele>1121</ele>
        <time>2011-07-07T06:05:43Z</time>
      </trkpt>
      <trkpt lat="45.18109" lon="5.64063">
        <ele>1122</ele>
        <time>2011-07-07T06:05:46Z</time>
      </trkpt>
      <trkpt lat="45.18113" lon="5.64066">
        <ele>1122</ele>
        <time>2011-07-07T06:05:48Z</time>
      </trkpt>
      <trkpt lat="45.18118" lon="5.6407">
        <ele>1121</ele>
        <time>2011-07-07T06:05:50Z</time>
      </trkpt>
      <trkpt lat="45.18125" lon="5.6406">
        <ele>1121</ele>
        <time>2011-07-07T06:05:52Z</time>
      </trkpt>
      <trkpt lat="45.18125" lon="5.64067">
        <ele>1121</ele>
        <time>2011-07-07T06:05:55Z</time>
      </trkpt>
      <trkpt lat="45.1813" lon="5.64066">
        <ele>1121</ele>
        <time>2011-07-07T06:05:57Z</time>
      </trkpt>
      <trkpt lat="45.18134" lon="5.64062">
        <ele>1122</ele>
        <time>2011-07-07T06:05:58Z</time>
      </trkpt>
      <trkpt lat="45.18139" lon="5.64066">
        <ele>1121</ele>
        <time>2011-07-07T06:06:00Z</time>
      </trkpt>
      <trkpt lat="45.18146" lon="5.64063">
        <ele>1121</ele>
        <time>2011-07-07T06:06:02Z</time>
      </trkpt>
      <trkpt lat="45.18151" lon="5.64065">
        <ele>1121</ele>
        <time>2011-07-07T06:06:05Z</time>
      </trkpt>
      <trkpt lat="45.18154" lon="5.64059">
        <ele>1127</ele>
        <time>2011-07-07T06:06:18Z</time>
      </trkpt>
      <trkpt lat="45.1817" lon="5.64062">
        <ele>1126</ele>
        <time>2011-07-07T06:07:20Z</time>
      </trkpt>
      <trkpt lat="45.18179" lon="5.64067">
        <ele>1126</ele>
        <time>2011-07-07T06:07:22Z</time>
      </trkpt>
      <trkpt lat="45.18202" lon="5.6407">
        <ele>1126</ele>
        <time>2011-07-07T06:07:25Z</time>
      </trkpt>
      <trkpt lat="45.18228" lon="5.64084">
        <ele>1125</ele>
        <time>2011-07-07T06:07:28Z</time>
      </trkpt>
      <trkpt lat="45.18289" lon="5.64132">
        <ele>1125</ele>
        <time>2011-07-07T06:07:46Z</time>
      </trkpt>
      <trkpt lat="45.18293" lon="5.6415">
        <ele>1124</ele>
        <time>2011-07-07T06:07:47Z</time>
      </trkpt>
      <trkpt lat="45.18301" lon="5.6416">
        <ele>1127</ele>
        <time>2011-07-07T06:07:49Z</time>
      </trkpt>
      <trkpt lat="45.18304" lon="5.64165">
        <ele>1128</ele>
        <time>2011-07-07T06:07:50Z</time>
      </trkpt>
      <trkpt lat="45.18312" lon="5.64166">
        <ele>1127</ele>
        <time>2011-07-07T06:07:51Z</time>
      </trkpt>
      <trkpt lat="45.18316" lon="5.64174">
        <ele>1128</ele>
        <time>2011-07-07T06:07:53Z</time>
      </trkpt>
      <trkpt lat="45.18322" lon="5.64182">
        <ele>1129</ele>
        <time>2011-07-07T06:07:55Z</time>
      </trkpt>
      <trkpt lat="45.18326" lon="5.64188">
        <ele>1131</ele>
        <time>2011-07-07T06:07:56Z</time>
      </trkpt>
      <trkpt lat="45.18334" lon="5.64196">
        <ele>1132</ele>
        <time>2011-07-07T06:07:58Z</time>
      </trkpt>
      <trkpt lat="45.18339" lon="5.64204">
        <ele>1133</ele>
        <time>2011-07-07T06:08:00Z</time>
      </trkpt>
      <trkpt lat="45.18342" lon="5.6421">
        <ele>1133</ele>
        <time>2011-07-07T06:08:02Z</time>
      </trkpt>
      <trkpt lat="45.18344" lon="5.64219">
        <ele>1134</ele>
        <time>2011-07-07T06:08:04Z</time>
      </trkpt>
      <trkpt lat="45.18346" lon="5.64227">
        <ele>1135</ele>
        <time>2011-07-07T06:08:06Z</time>
      </trkpt>
      <trkpt lat="45.1835" lon="5.64236">
        <ele>1136</ele>
        <time>2011-07-07T06:08:09Z</time>
      </trkpt>
      <trkpt lat="45.18349" lon="5.64246">
        <ele>1136</ele>
        <time>2011-07-07T06:08:11Z</time>
      </trkpt>
      <trkpt lat="45.18347" lon="5.64254">
        <ele>1136</ele>
        <time>2011-07-07T06:08:13Z</time>
      </trkpt>
      <trkpt lat="45.1835" lon="5.6426">
        <ele>1136</ele>
        <time>2011-07-07T06:08:14Z</time>
      </trkpt>
      <trkpt lat="45.1835" lon="5.64268">
        <ele>1136</ele>
        <time>2011-07-07T06:08:19Z</time>
      </trkpt>
      <trkpt lat="45.18348" lon="5.64274">
        <ele>1139</ele>
        <time>2011-07-07T06:08:23Z</time>
      </trkpt>
      <trkpt lat="45.18356" lon="5.64312">
        <ele>1141</ele>
        <time>2011-07-07T06:08:32Z</time>
      </trkpt>
      <trkpt lat="45.18361" lon="5.64326">
        <ele>1141</ele>
        <time>2011-07-07T06:08:34Z</time>
      </trkpt>
      <trkpt lat="45.18356" lon="5.64331">
        <ele>1142</ele>
        <time>2011-07-07T06:08:36Z</time>
      </trkpt>
      <trkpt lat="45.18355" lon="5.64338">
        <ele>1142</ele>
        <time>2011-07-07T06:08:39Z</time>
      </trkpt>
      <trkpt lat="45.18355" lon="5.64346">
        <ele>1141</ele>
        <time>2011-07-07T06:08:40Z</time>
      </trkpt>
      <trkpt lat="45.18358" lon="5.64352">
        <ele>1141</ele>
        <time>2011-07-07T06:08:42Z</time>
      </trkpt>
      <trkpt lat="45.18358" lon="5.64359">
        <ele>1139</ele>
        <time>2011-07-07T06:08:43Z</time>
      </trkpt>
      <trkpt lat="45.18357" lon="5.64368">
        <ele>1137</ele>
        <time>2011-07-07T06:08:45Z</time>
      </trkpt>
      <trkpt lat="45.18361" lon="5.64373">
        <ele>1138</ele>
        <time>2011-07-07T06:08:47Z</time>
      </trkpt>
      <trkpt lat="45.18359" lon="5.64381">
        <ele>1139</ele>
        <time>2011-07-07T06:08:48Z</time>
      </trkpt>
      <trkpt lat="45.18362" lon="5.64388">
        <ele>1137</ele>
        <time>2011-07-07T06:08:51Z</time>
      </trkpt>
      <trkpt lat="45.18367" lon="5.64394">
        <ele>1138</ele>
        <time>2011-07-07T06:08:53Z</time>
      </trkpt>
      <trkpt lat="45.1837" lon="5.64402">
        <ele>1136</ele>
        <time>2011-07-07T06:08:55Z</time>
      </trkpt>
      <trkpt lat="45.18373" lon="5.64412">
        <ele>1136</ele>
        <time>2011-07-07T06:08:57Z</time>
      </trkpt>
      <trkpt lat="45.18377" lon="5.64419">
        <ele>1134</ele>
        <time>2011-07-07T06:08:59Z</time>
      </trkpt>
      <trkpt lat="45.18384" lon="5.64427">
        <ele>1135</ele>
        <time>2011-07-07T06:09:01Z</time>
      </trkpt>
      <trkpt lat="45.18386" lon="5.64433">
        <ele>1136</ele>
        <time>2011-07-07T06:09:02Z</time>
      </trkpt>
      <trkpt lat="45.18389" lon="5.64441">
        <ele>1136</ele>
        <time>2011-07-07T06:09:04Z</time>
      </trkpt>
      <trkpt lat="45.18392" lon="5.64449">
        <ele>1135</ele>
        <time>2011-07-07T06:09:06Z</time>
      </trkpt>
      <trkpt lat="45.18396" lon="5.64456">
        <ele>1135</ele>
        <time>2011-07-07T06:09:10Z</time>
      </trkpt>
      <trkpt lat="45.18399" lon="5.64461">
        <ele>1135</ele>
        <time>2011-07-07T06:09:12Z</time>
      </trkpt>
      <trkpt lat="45.18403" lon="5.64465">
        <ele>1135</ele>
        <time>2011-07-07T06:09:15Z</time>
      </trkpt>
      <trkpt lat="45.18407" lon="5.6447">
        <ele>1135</ele>
        <time>2011-07-07T06:09:19Z</time>
      </trkpt>
      <trkpt lat="45.18412" lon="5.64476">
        <ele>1135</ele>
        <time>2011-07-07T06:09:43Z</time>
      </trkpt>
      <trkpt lat="45.18408" lon="5.6448">
        <ele>1136</ele>
        <time>2011-07-07T06:09:44Z</time>
      </trkpt>
      <trkpt lat="45.18413" lon="5.64483">
        <ele>1135</ele>
        <time>2011-07-07T06:09:56Z</time>
      </trkpt>
      <trkpt lat="45.18419" lon="5.64485">
        <ele>1136</ele>
        <time>2011-07-07T06:09:58Z</time>
      </trkpt>
      <trkpt lat="45.18424" lon="5.64487">
        <ele>1134</ele>
        <time>2011-07-07T06:10:00Z</time>
      </trkpt>
      <trkpt lat="45.18429" lon="5.64488">
        <ele>1132</ele>
        <time>2011-07-07T06:10:03Z</time>
      </trkpt>
      <trkpt lat="45.18434" lon="5.64485">
        <ele>1132</ele>
        <time>2011-07-07T06:10:04Z</time>
      </trkpt>
      <trkpt lat="45.18438" lon="5.6448">
        <ele>1132</ele>
        <time>2011-07-07T06:10:15Z</time>
      </trkpt>
      <trkpt lat="45.18438" lon="5.6448">
        <ele>1132</ele>
        <time>2011-07-07T06:10:15Z</time>
      </trkpt>
      <trkpt lat="45.18438" lon="5.6448">
        <ele>1132</ele>
        <time>2011-07-07T06:10:25Z</time>
      </trkpt>
      <trkpt lat="45.18443" lon="5.6448">
        <ele>1132</ele>
        <time>2011-07-07T06:10:37Z</time>
      </trkpt>
      <trkpt lat="45.1845" lon="5.64482">
        <ele>1132</ele>
        <time>2011-07-07T06:10:39Z</time>
      </trkpt>
      <trkpt lat="45.18456" lon="5.64483">
        <ele>1132</ele>
        <time>2011-07-07T06:10:41Z</time>
      </trkpt>
      <trkpt lat="45.18462" lon="5.64486">
        <ele>1133</ele>
        <time>2011-07-07T06:10:43Z</time>
      </trkpt>
      <trkpt lat="45.18468" lon="5.64486">
        <ele>1133</ele>
        <time>2011-07-07T06:10:45Z</time>
      </trkpt>
      <trkpt lat="45.18472" lon="5.64484">
        <ele>1134</ele>
        <time>2011-07-07T06:10:46Z</time>
      </trkpt>
      <trkpt lat="45.18479" lon="5.64482">
        <ele>1135</ele>
        <time>2011-07-07T06:10:48Z</time>
      </trkpt>
      <trkpt lat="45.18486" lon="5.64481">
        <ele>1136</ele>
        <time>2011-07-07T06:10:50Z</time>
      </trkpt>
      <trkpt lat="45.18491" lon="5.6448">
        <ele>1136</ele>
        <time>2011-07-07T06:10:51Z</time>
      </trkpt>
      <trkpt lat="45.18499" lon="5.64479">
        <ele>1136</ele>
        <time>2011-07-07T06:10:53Z</time>
      </trkpt>
      <trkpt lat="45.18507" lon="5.64478">
        <ele>1136</ele>
        <time>2011-07-07T06:10:55Z</time>
      </trkpt>
      <trkpt lat="45.18517" lon="5.6448">
        <ele>1136</ele>
        <time>2011-07-07T06:10:57Z</time>
      </trkpt>
      <trkpt lat="45.18521" lon="5.64482">
        <ele>1138</ele>
        <time>2011-07-07T06:10:58Z</time>
      </trkpt>
      <trkpt lat="45.18525" lon="5.64485">
        <ele>1138</ele>
        <time>2011-07-07T06:10:59Z</time>
      </trkpt>
      <trkpt lat="45.18532" lon="5.64488">
        <ele>1139</ele>
        <time>2011-07-07T06:11:01Z</time>
      </trkpt>
      <trkpt lat="45.18545" lon="5.64493">
        <ele>1139</ele>
        <time>2011-07-07T06:11:04Z</time>
      </trkpt>
      <trkpt lat="45.18548" lon="5.64496">
        <ele>1138</ele>
        <time>2011-07-07T06:11:05Z</time>
      </trkpt>
      <trkpt lat="45.18556" lon="5.64499">
        <ele>1137</ele>
        <time>2011-07-07T06:11:07Z</time>
      </trkpt>
      <trkpt lat="45.1856" lon="5.64501">
        <ele>1137</ele>
        <time>2011-07-07T06:11:08Z</time>
      </trkpt>
      <trkpt lat="45.18567" lon="5.64505">
        <ele>1137</ele>
        <time>2011-07-07T06:11:10Z</time>
      </trkpt>
      <trkpt lat="45.18574" lon="5.6451">
        <ele>1137</ele>
        <time>2011-07-07T06:11:12Z</time>
      </trkpt>
      <trkpt lat="45.18581" lon="5.64513">
        <ele>1137</ele>
        <time>2011-07-07T06:11:14Z</time>
      </trkpt>
      <trkpt lat="45.18587" lon="5.64517">
        <ele>1137</ele>
        <time>2011-07-07T06:11:16Z</time>
      </trkpt>
      <trkpt lat="45.18591" lon="5.64519">
        <ele>1136</ele>
        <time>2011-07-07T06:11:17Z</time>
      </trkpt>
      <trkpt lat="45.18598" lon="5.6452">
        <ele>1138</ele>
        <time>2011-07-07T06:11:19Z</time>
      </trkpt>
      <trkpt lat="45.18611" lon="5.64527">
        <ele>1140</ele>
        <time>2011-07-07T06:11:23Z</time>
      </trkpt>
      <trkpt lat="45.18617" lon="5.64528">
        <ele>1139</ele>
        <time>2011-07-07T06:11:25Z</time>
      </trkpt>
      <trkpt lat="45.18622" lon="5.64528">
        <ele>1140</ele>
        <time>2011-07-07T06:11:26Z</time>
      </trkpt>
      <trkpt lat="45.18628" lon="5.6453">
        <ele>1140</ele>
        <time>2011-07-07T06:11:28Z</time>
      </trkpt>
      <trkpt lat="45.18635" lon="5.64533">
        <ele>1141</ele>
        <time>2011-07-07T06:11:30Z</time>
      </trkpt>
      <trkpt lat="45.1864" lon="5.64533">
        <ele>1141</ele>
        <time>2011-07-07T06:11:31Z</time>
      </trkpt>
      <trkpt lat="45.18644" lon="5.64534">
        <ele>1141</ele>
        <time>2011-07-07T06:11:32Z</time>
      </trkpt>
      <trkpt lat="45.18652" lon="5.64537">
        <ele>1142</ele>
        <time>2011-07-07T06:11:34Z</time>
      </trkpt>
      <trkpt lat="45.18658" lon="5.6454">
        <ele>1142</ele>
        <time>2011-07-07T06:11:36Z</time>
      </trkpt>
      <trkpt lat="45.18664" lon="5.64544">
        <ele>1142</ele>
        <time>2011-07-07T06:11:38Z</time>
      </trkpt>
      <trkpt lat="45.18669" lon="5.64547">
        <ele>1142</ele>
        <time>2011-07-07T06:11:40Z</time>
      </trkpt>
      <trkpt lat="45.18675" lon="5.6455">
        <ele>1142</ele>
        <time>2011-07-07T06:11:42Z</time>
      </trkpt>
      <trkpt lat="45.1868" lon="5.64554">
        <ele>1141</ele>
        <time>2011-07-07T06:11:44Z</time>
      </trkpt>
      <trkpt lat="45.18685" lon="5.64558">
        <ele>1141</ele>
        <time>2011-07-07T06:11:46Z</time>
      </trkpt>
      <trkpt lat="45.18691" lon="5.64562">
        <ele>1140</ele>
        <time>2011-07-07T06:11:48Z</time>
      </trkpt>
      <trkpt lat="45.18696" lon="5.64565">
        <ele>1139</ele>
        <time>2011-07-07T06:11:50Z</time>
      </trkpt>
      <trkpt lat="45.187" lon="5.64569">
        <ele>1138</ele>
        <time>2011-07-07T06:11:52Z</time>
      </trkpt>
      <trkpt lat="45.18706" lon="5.64571">
        <ele>1138</ele>
        <time>2011-07-07T06:11:54Z</time>
      </trkpt>
      <trkpt lat="45.18711" lon="5.64574">
        <ele>1137</ele>
        <time>2011-07-07T06:11:56Z</time>
      </trkpt>
      <trkpt lat="45.18716" lon="5.64579">
        <ele>1137</ele>
        <time>2011-07-07T06:11:58Z</time>
      </trkpt>
      <trkpt lat="45.18721" lon="5.64582">
        <ele>1137</ele>
        <time>2011-07-07T06:12:00Z</time>
      </trkpt>
      <trkpt lat="45.18727" lon="5.64586">
        <ele>1135</ele>
        <time>2011-07-07T06:12:02Z</time>
      </trkpt>
      <trkpt lat="45.18733" lon="5.64587">
        <ele>1137</ele>
        <time>2011-07-07T06:12:04Z</time>
      </trkpt>
      <trkpt lat="45.18739" lon="5.64589">
        <ele>1138</ele>
        <time>2011-07-07T06:12:06Z</time>
      </trkpt>
      <trkpt lat="45.18744" lon="5.64592">
        <ele>1138</ele>
        <time>2011-07-07T06:12:08Z</time>
      </trkpt>
      <trkpt lat="45.18749" lon="5.64594">
        <ele>1140</ele>
        <time>2011-07-07T06:12:10Z</time>
      </trkpt>
      <trkpt lat="45.18754" lon="5.64596">
        <ele>1142</ele>
        <time>2011-07-07T06:12:12Z</time>
      </trkpt>
      <trkpt lat="45.18761" lon="5.64597">
        <ele>1142</ele>
        <time>2011-07-07T06:12:14Z</time>
      </trkpt>
      <trkpt lat="45.18767" lon="5.64599">
        <ele>1143</ele>
        <time>2011-07-07T06:12:16Z</time>
      </trkpt>
      <trkpt lat="45.18773" lon="5.64601">
        <ele>1143</ele>
        <time>2011-07-07T06:12:18Z</time>
      </trkpt>
      <trkpt lat="45.1878" lon="5.64604">
        <ele>1143</ele>
        <time>2011-07-07T06:12:20Z</time>
      </trkpt>
      <trkpt lat="45.18787" lon="5.64606">
        <ele>1143</ele>
        <time>2011-07-07T06:12:22Z</time>
      </trkpt>
      <trkpt lat="45.18794" lon="5.64608">
        <ele>1143</ele>
        <time>2011-07-07T06:12:24Z</time>
      </trkpt>
      <trkpt lat="45.18801" lon="5.6461">
        <ele>1143</ele>
        <time>2011-07-07T06:12:26Z</time>
      </trkpt>
      <trkpt lat="45.18809" lon="5.64614">
        <ele>1142</ele>
        <time>2011-07-07T06:12:28Z</time>
      </trkpt>
      <trkpt lat="45.18817" lon="5.64619">
        <ele>1141</ele>
        <time>2011-07-07T06:12:30Z</time>
      </trkpt>
      <trkpt lat="45.18822" lon="5.64621">
        <ele>1141</ele>
        <time>2011-07-07T06:12:31Z</time>
      </trkpt>
      <trkpt lat="45.18826" lon="5.64624">
        <ele>1142</ele>
        <time>2011-07-07T06:12:32Z</time>
      </trkpt>
      <trkpt lat="45.1883" lon="5.64626">
        <ele>1142</ele>
        <time>2011-07-07T06:12:33Z</time>
      </trkpt>
      <trkpt lat="45.18836" lon="5.64633">
        <ele>1142</ele>
        <time>2011-07-07T06:12:35Z</time>
      </trkpt>
      <trkpt lat="45.18842" lon="5.64638">
        <ele>1142</ele>
        <time>2011-07-07T06:12:37Z</time>
      </trkpt>
      <trkpt lat="45.18846" lon="5.6465">
        <ele>1142</ele>
        <time>2011-07-07T06:12:39Z</time>
      </trkpt>
      <trkpt lat="45.1885" lon="5.64659">
        <ele>1144</ele>
        <time>2011-07-07T06:12:41Z</time>
      </trkpt>
      <trkpt lat="45.18854" lon="5.6467">
        <ele>1143</ele>
        <time>2011-07-07T06:12:43Z</time>
      </trkpt>
      <trkpt lat="45.18859" lon="5.64678">
        <ele>1143</ele>
        <time>2011-07-07T06:12:45Z</time>
      </trkpt>
      <trkpt lat="45.18863" lon="5.64684">
        <ele>1144</ele>
        <time>2011-07-07T06:12:46Z</time>
      </trkpt>
      <trkpt lat="45.18866" lon="5.64689">
        <ele>1145</ele>
        <time>2011-07-07T06:12:47Z</time>
      </trkpt>
      <trkpt lat="45.18871" lon="5.64698">
        <ele>1145</ele>
        <time>2011-07-07T06:12:49Z</time>
      </trkpt>
      <trkpt lat="45.18878" lon="5.64705">
        <ele>1145</ele>
        <time>2011-07-07T06:12:51Z</time>
      </trkpt>
      <trkpt lat="45.18887" lon="5.64708">
        <ele>1145</ele>
        <time>2011-07-07T06:12:53Z</time>
      </trkpt>
      <trkpt lat="45.18892" lon="5.64709">
        <ele>1145</ele>
        <time>2011-07-07T06:12:54Z</time>
      </trkpt>
      <trkpt lat="45.18897" lon="5.64711">
        <ele>1144</ele>
        <time>2011-07-07T06:12:55Z</time>
      </trkpt>
      <trkpt lat="45.18902" lon="5.6471">
        <ele>1144</ele>
        <time>2011-07-07T06:12:56Z</time>
      </trkpt>
      <trkpt lat="45.18907" lon="5.64708">
        <ele>1144</ele>
        <time>2011-07-07T06:12:57Z</time>
      </trkpt>
      <trkpt lat="45.18913" lon="5.64707">
        <ele>1145</ele>
        <time>2011-07-07T06:12:58Z</time>
      </trkpt>
      <trkpt lat="45.18918" lon="5.64707">
        <ele>1145</ele>
        <time>2011-07-07T06:12:59Z</time>
      </trkpt>
      <trkpt lat="45.18924" lon="5.64706">
        <ele>1145</ele>
        <time>2011-07-07T06:13:00Z</time>
      </trkpt>
      <trkpt lat="45.18934" lon="5.64705">
        <ele>1146</ele>
        <time>2011-07-07T06:13:02Z</time>
      </trkpt>
      <trkpt lat="45.18938" lon="5.64703">
        <ele>1146</ele>
        <time>2011-07-07T06:13:03Z</time>
      </trkpt>
      <trkpt lat="45.18945" lon="5.64702">
        <ele>1146</ele>
        <time>2011-07-07T06:13:04Z</time>
      </trkpt>
      <trkpt lat="45.18951" lon="5.64702">
        <ele>1145</ele>
        <time>2011-07-07T06:13:05Z</time>
      </trkpt>
      <trkpt lat="45.18956" lon="5.64702">
        <ele>1144</ele>
        <time>2011-07-07T06:13:06Z</time>
      </trkpt>
      <trkpt lat="45.18962" lon="5.647">
        <ele>1145</ele>
        <time>2011-07-07T06:13:07Z</time>
      </trkpt>
      <trkpt lat="45.18968" lon="5.64699">
        <ele>1144</ele>
        <time>2011-07-07T06:13:08Z</time>
      </trkpt>
      <trkpt lat="45.18974" lon="5.64697">
        <ele>1144</ele>
        <time>2011-07-07T06:13:09Z</time>
      </trkpt>
      <trkpt lat="45.1898" lon="5.64697">
        <ele>1144</ele>
        <time>2011-07-07T06:13:10Z</time>
      </trkpt>
      <trkpt lat="45.18986" lon="5.64698">
        <ele>1144</ele>
        <time>2011-07-07T06:13:11Z</time>
      </trkpt>
      <trkpt lat="45.18992" lon="5.64702">
        <ele>1144</ele>
        <time>2011-07-07T06:13:12Z</time>
      </trkpt>
      <trkpt lat="45.18999" lon="5.64702">
        <ele>1144</ele>
        <time>2011-07-07T06:13:13Z</time>
      </trkpt>
      <trkpt lat="45.19008" lon="5.64705">
        <ele>1145</ele>
        <time>2011-07-07T06:13:14Z</time>
      </trkpt>
      <trkpt lat="45.19016" lon="5.64708">
        <ele>1146</ele>
        <time>2011-07-07T06:13:15Z</time>
      </trkpt>
      <trkpt lat="45.19023" lon="5.64711">
        <ele>1146</ele>
        <time>2011-07-07T06:13:16Z</time>
      </trkpt>
      <trkpt lat="45.1903" lon="5.64716">
        <ele>1147</ele>
        <time>2011-07-07T06:13:17Z</time>
      </trkpt>
      <trkpt lat="45.19037" lon="5.6472">
        <ele>1147</ele>
        <time>2011-07-07T06:13:18Z</time>
      </trkpt>
      <trkpt lat="45.19044" lon="5.64724">
        <ele>1147</ele>
        <time>2011-07-07T06:13:19Z</time>
      </trkpt>
      <trkpt lat="45.19052" lon="5.6473">
        <ele>1146</ele>
        <time>2011-07-07T06:13:20Z</time>
      </trkpt>
      <trkpt lat="45.19059" lon="5.64736">
        <ele>1145</ele>
        <time>2011-07-07T06:13:21Z</time>
      </trkpt>
      <trkpt lat="45.19067" lon="5.64742">
        <ele>1145</ele>
        <time>2011-07-07T06:13:22Z</time>
      </trkpt>
      <trkpt lat="45.19075" lon="5.64747">
        <ele>1144</ele>
        <time>2011-07-07T06:13:23Z</time>
      </trkpt>
      <trkpt lat="45.19085" lon="5.6475">
        <ele>1143</ele>
        <time>2011-07-07T06:13:24Z</time>
      </trkpt>
      <trkpt lat="45.19094" lon="5.64753">
        <ele>1143</ele>
        <time>2011-07-07T06:13:25Z</time>
      </trkpt>
      <trkpt lat="45.19102" lon="5.64755">
        <ele>1143</ele>
        <time>2011-07-07T06:13:26Z</time>
      </trkpt>
      <trkpt lat="45.19111" lon="5.64754">
        <ele>1142</ele>
        <time>2011-07-07T06:13:27Z</time>
      </trkpt>
      <trkpt lat="45.1912" lon="5.64752">
        <ele>1141</ele>
        <time>2011-07-07T06:13:28Z</time>
      </trkpt>
      <trkpt lat="45.1914" lon="5.6475">
        <ele>1141</ele>
        <time>2011-07-07T06:13:30Z</time>
      </trkpt>
      <trkpt lat="45.19149" lon="5.6475">
        <ele>1140</ele>
        <time>2011-07-07T06:13:31Z</time>
      </trkpt>
      <trkpt lat="45.1916" lon="5.64749">
        <ele>1139</ele>
        <time>2011-07-07T06:13:32Z</time>
      </trkpt>
      <trkpt lat="45.1917" lon="5.64748">
        <ele>1138</ele>
        <time>2011-07-07T06:13:33Z</time>
      </trkpt>
      <trkpt lat="45.1918" lon="5.64746">
        <ele>1139</ele>
        <time>2011-07-07T06:13:34Z</time>
      </trkpt>
      <trkpt lat="45.1919" lon="5.64745">
        <ele>1139</ele>
        <time>2011-07-07T06:13:35Z</time>
      </trkpt>
      <trkpt lat="45.192" lon="5.64744">
        <ele>1140</ele>
        <time>2011-07-07T06:13:36Z</time>
      </trkpt>
      <trkpt lat="45.1921" lon="5.64743">
        <ele>1140</ele>
        <time>2011-07-07T06:13:37Z</time>
      </trkpt>
      <trkpt lat="45.19221" lon="5.64739">
        <ele>1140</ele>
        <time>2011-07-07T06:13:38Z</time>
      </trkpt>
      <trkpt lat="45.19231" lon="5.64737">
        <ele>1140</ele>
        <time>2011-07-07T06:13:39Z</time>
      </trkpt>
      <trkpt lat="45.19243" lon="5.64735">
        <ele>1140</ele>
        <time>2011-07-07T06:13:40Z</time>
      </trkpt>
      <trkpt lat="45.19254" lon="5.64734">
        <ele>1140</ele>
        <time>2011-07-07T06:13:41Z</time>
      </trkpt>
      <trkpt lat="45.19265" lon="5.64731">
        <ele>1140</ele>
        <time>2011-07-07T06:13:42Z</time>
      </trkpt>
      <trkpt lat="45.19274" lon="5.64731">
        <ele>1139</ele>
        <time>2011-07-07T06:13:43Z</time>
      </trkpt>
      <trkpt lat="45.19284" lon="5.6473">
        <ele>1139</ele>
        <time>2011-07-07T06:13:44Z</time>
      </trkpt>
      <trkpt lat="45.1929" lon="5.64728">
        <ele>1139</ele>
        <time>2011-07-07T06:13:45Z</time>
      </trkpt>
      <trkpt lat="45.193" lon="5.6473">
        <ele>1139</ele>
        <time>2011-07-07T06:13:46Z</time>
      </trkpt>
      <trkpt lat="45.19309" lon="5.64731">
        <ele>1139</ele>
        <time>2011-07-07T06:13:47Z</time>
      </trkpt>
      <trkpt lat="45.19319" lon="5.64739">
        <ele>1138</ele>
        <time>2011-07-07T06:13:48Z</time>
      </trkpt>
      <trkpt lat="45.1933" lon="5.64747">
        <ele>1137</ele>
        <time>2011-07-07T06:13:49Z</time>
      </trkpt>
      <trkpt lat="45.19338" lon="5.64752">
        <ele>1136</ele>
        <time>2011-07-07T06:13:50Z</time>
      </trkpt>
      <trkpt lat="45.19347" lon="5.64756">
        <ele>1136</ele>
        <time>2011-07-07T06:13:51Z</time>
      </trkpt>
      <trkpt lat="45.19354" lon="5.64759">
        <ele>1136</ele>
        <time>2011-07-07T06:13:52Z</time>
      </trkpt>
      <trkpt lat="45.19363" lon="5.64762">
        <ele>1136</ele>
        <time>2011-07-07T06:13:53Z</time>
      </trkpt>
      <trkpt lat="45.19371" lon="5.64763">
        <ele>1136</ele>
        <time>2011-07-07T06:13:54Z</time>
      </trkpt>
      <trkpt lat="45.19383" lon="5.64771">
        <ele>1136</ele>
        <time>2011-07-07T06:13:56Z</time>
      </trkpt>
      <trkpt lat="45.19389" lon="5.6478">
        <ele>1135</ele>
        <time>2011-07-07T06:13:58Z</time>
      </trkpt>
      <trkpt lat="45.19389" lon="5.64792">
        <ele>1135</ele>
        <time>2011-07-07T06:14:00Z</time>
      </trkpt>
      <trkpt lat="45.19389" lon="5.64802">
        <ele>1135</ele>
        <time>2011-07-07T06:14:02Z</time>
      </trkpt>
      <trkpt lat="45.19389" lon="5.64809">
        <ele>1135</ele>
        <time>2011-07-07T06:14:03Z</time>
      </trkpt>
      <trkpt lat="45.19342" lon="5.64839">
        <ele>1132</ele>
        <time>2011-07-07T06:14:12Z</time>
      </trkpt>
      <trkpt lat="45.19345" lon="5.64845">
        <ele>1132</ele>
        <time>2011-07-07T06:14:15Z</time>
      </trkpt>
      <trkpt lat="45.19363" lon="5.64898">
        <ele>1129</ele>
        <time>2011-07-07T06:14:31Z</time>
      </trkpt>
      <trkpt lat="45.19374" lon="5.64887">
        <ele>1128</ele>
        <time>2011-07-07T06:14:44Z</time>
      </trkpt>
      <trkpt lat="45.19383" lon="5.64873">
        <ele>1128</ele>
        <time>2011-07-07T06:14:45Z</time>
      </trkpt>
      <trkpt lat="45.19384" lon="5.6488">
        <ele>1128</ele>
        <time>2011-07-07T06:14:46Z</time>
      </trkpt>
      <trkpt lat="45.19388" lon="5.64888">
        <ele>1128</ele>
        <time>2011-07-07T06:14:48Z</time>
      </trkpt>
      <trkpt lat="45.1939" lon="5.64896">
        <ele>1128</ele>
        <time>2011-07-07T06:14:49Z</time>
      </trkpt>
      <trkpt lat="45.19399" lon="5.64892">
        <ele>1128</ele>
        <time>2011-07-07T06:14:50Z</time>
      </trkpt>
      <trkpt lat="45.19403" lon="5.64897">
        <ele>1129</ele>
        <time>2011-07-07T06:14:51Z</time>
      </trkpt>
      <trkpt lat="45.19409" lon="5.649">
        <ele>1126</ele>
        <time>2011-07-07T06:14:53Z</time>
      </trkpt>
      <trkpt lat="45.19415" lon="5.64897">
        <ele>1126</ele>
        <time>2011-07-07T06:14:54Z</time>
      </trkpt>
      <trkpt lat="45.19422" lon="5.64897">
        <ele>1126</ele>
        <time>2011-07-07T06:14:55Z</time>
      </trkpt>
      <trkpt lat="45.19432" lon="5.64899">
        <ele>1126</ele>
        <time>2011-07-07T06:14:57Z</time>
      </trkpt>
      <trkpt lat="45.19437" lon="5.64903">
        <ele>1126</ele>
        <time>2011-07-07T06:14:58Z</time>
      </trkpt>
      <trkpt lat="45.19448" lon="5.64902">
        <ele>1125</ele>
        <time>2011-07-07T06:14:59Z</time>
      </trkpt>
      <trkpt lat="45.19461" lon="5.64893">
        <ele>1122</ele>
        <time>2011-07-07T06:15:00Z</time>
      </trkpt>
      <trkpt lat="45.19471" lon="5.64896">
        <ele>1120</ele>
        <time>2011-07-07T06:15:01Z</time>
      </trkpt>
      <trkpt lat="45.19479" lon="5.64902">
        <ele>1120</ele>
        <time>2011-07-07T06:15:02Z</time>
      </trkpt>
      <trkpt lat="45.19487" lon="5.64907">
        <ele>1119</ele>
        <time>2011-07-07T06:15:03Z</time>
      </trkpt>
      <trkpt lat="45.19493" lon="5.64908">
        <ele>1117</ele>
        <time>2011-07-07T06:15:04Z</time>
      </trkpt>
      <trkpt lat="45.195" lon="5.6491">
        <ele>1117</ele>
        <time>2011-07-07T06:15:05Z</time>
      </trkpt>
      <trkpt lat="45.19506" lon="5.64912">
        <ele>1116</ele>
        <time>2011-07-07T06:15:06Z</time>
      </trkpt>
      <trkpt lat="45.1951" lon="5.64916">
        <ele>1116</ele>
        <time>2011-07-07T06:15:07Z</time>
      </trkpt>
      <trkpt lat="45.19516" lon="5.64917">
        <ele>1116</ele>
        <time>2011-07-07T06:15:08Z</time>
      </trkpt>
      <trkpt lat="45.19522" lon="5.64919">
        <ele>1116</ele>
        <time>2011-07-07T06:15:09Z</time>
      </trkpt>
      <trkpt lat="45.19526" lon="5.64921">
        <ele>1116</ele>
        <time>2011-07-07T06:15:10Z</time>
      </trkpt>
      <trkpt lat="45.19532" lon="5.64924">
        <ele>1115</ele>
        <time>2011-07-07T06:15:11Z</time>
      </trkpt>
      <trkpt lat="45.19538" lon="5.64926">
        <ele>1115</ele>
        <time>2011-07-07T06:15:12Z</time>
      </trkpt>
      <trkpt lat="45.19545" lon="5.64931">
        <ele>1114</ele>
        <time>2011-07-07T06:15:13Z</time>
      </trkpt>
      <trkpt lat="45.19552" lon="5.64937">
        <ele>1113</ele>
        <time>2011-07-07T06:15:14Z</time>
      </trkpt>
      <trkpt lat="45.19558" lon="5.6494">
        <ele>1113</ele>
        <time>2011-07-07T06:15:15Z</time>
      </trkpt>
      <trkpt lat="45.19561" lon="5.64949">
        <ele>1113</ele>
        <time>2011-07-07T06:15:16Z</time>
      </trkpt>
      <trkpt lat="45.19567" lon="5.64958">
        <ele>1112</ele>
        <time>2011-07-07T06:15:17Z</time>
      </trkpt>
      <trkpt lat="45.1957" lon="5.64965">
        <ele>1111</ele>
        <time>2011-07-07T06:15:18Z</time>
      </trkpt>
      <trkpt lat="45.19572" lon="5.64973">
        <ele>1111</ele>
        <time>2011-07-07T06:15:19Z</time>
      </trkpt>
      <trkpt lat="45.1957" lon="5.64982">
        <ele>1111</ele>
        <time>2011-07-07T06:15:20Z</time>
      </trkpt>
      <trkpt lat="45.19567" lon="5.6499">
        <ele>1111</ele>
        <time>2011-07-07T06:15:21Z</time>
      </trkpt>
      <trkpt lat="45.19562" lon="5.64984">
        <ele>1110</ele>
        <time>2011-07-07T06:15:23Z</time>
      </trkpt>
      <trkpt lat="45.19554" lon="5.64984">
        <ele>1111</ele>
        <time>2011-07-07T06:15:24Z</time>
      </trkpt>
      <trkpt lat="45.19547" lon="5.64982">
        <ele>1110</ele>
        <time>2011-07-07T06:15:25Z</time>
      </trkpt>
      <trkpt lat="45.19541" lon="5.64979">
        <ele>1109</ele>
        <time>2011-07-07T06:15:26Z</time>
      </trkpt>
      <trkpt lat="45.19533" lon="5.6498">
        <ele>1109</ele>
        <time>2011-07-07T06:15:27Z</time>
      </trkpt>
      <trkpt lat="45.19526" lon="5.64979">
        <ele>1108</ele>
        <time>2011-07-07T06:15:28Z</time>
      </trkpt>
      <trkpt lat="45.19513" lon="5.64972">
        <ele>1107</ele>
        <time>2011-07-07T06:15:30Z</time>
      </trkpt>
      <trkpt lat="45.19503" lon="5.64974">
        <ele>1107</ele>
        <time>2011-07-07T06:15:31Z</time>
      </trkpt>
      <trkpt lat="45.19494" lon="5.64975">
        <ele>1105</ele>
        <time>2011-07-07T06:15:32Z</time>
      </trkpt>
      <trkpt lat="45.19486" lon="5.64974">
        <ele>1104</ele>
        <time>2011-07-07T06:15:33Z</time>
      </trkpt>
      <trkpt lat="45.19479" lon="5.64971">
        <ele>1103</ele>
        <time>2011-07-07T06:15:34Z</time>
      </trkpt>
      <trkpt lat="45.19472" lon="5.64971">
        <ele>1103</ele>
        <time>2011-07-07T06:15:35Z</time>
      </trkpt>
      <trkpt lat="45.19464" lon="5.64966">
        <ele>1100</ele>
        <time>2011-07-07T06:15:36Z</time>
      </trkpt>
      <trkpt lat="45.19458" lon="5.64962">
        <ele>1098</ele>
        <time>2011-07-07T06:15:37Z</time>
      </trkpt>
      <trkpt lat="45.19451" lon="5.64961">
        <ele>1097</ele>
        <time>2011-07-07T06:15:38Z</time>
      </trkpt>
      <trkpt lat="45.19443" lon="5.64962">
        <ele>1095</ele>
        <time>2011-07-07T06:15:39Z</time>
      </trkpt>
      <trkpt lat="45.19436" lon="5.64964">
        <ele>1095</ele>
        <time>2011-07-07T06:15:40Z</time>
      </trkpt>
      <trkpt lat="45.19428" lon="5.64966">
        <ele>1094</ele>
        <time>2011-07-07T06:15:41Z</time>
      </trkpt>
      <trkpt lat="45.19422" lon="5.64971">
        <ele>1094</ele>
        <time>2011-07-07T06:15:42Z</time>
      </trkpt>
      <trkpt lat="45.19415" lon="5.64977">
        <ele>1093</ele>
        <time>2011-07-07T06:15:43Z</time>
      </trkpt>
      <trkpt lat="45.19408" lon="5.6498">
        <ele>1093</ele>
        <time>2011-07-07T06:15:44Z</time>
      </trkpt>
      <trkpt lat="45.19403" lon="5.64988">
        <ele>1092</ele>
        <time>2011-07-07T06:15:45Z</time>
      </trkpt>
      <trkpt lat="45.19398" lon="5.64995">
        <ele>1092</ele>
        <time>2011-07-07T06:15:46Z</time>
      </trkpt>
      <trkpt lat="45.19393" lon="5.64998">
        <ele>1092</ele>
        <time>2011-07-07T06:15:47Z</time>
      </trkpt>
      <trkpt lat="45.19388" lon="5.64997">
        <ele>1092</ele>
        <time>2011-07-07T06:15:49Z</time>
      </trkpt>
      <trkpt lat="45.19381" lon="5.64998">
        <ele>1086</ele>
        <time>2011-07-07T06:16:12Z</time>
      </trkpt>
      <trkpt lat="45.19374" lon="5.64998">
        <ele>1085</ele>
        <time>2011-07-07T06:16:16Z</time>
      </trkpt>
      <trkpt lat="45.1937" lon="5.65">
        <ele>1086</ele>
        <time>2011-07-07T06:16:18Z</time>
      </trkpt>
      <trkpt lat="45.1936" lon="5.65002">
        <ele>1085</ele>
        <time>2011-07-07T06:16:22Z</time>
      </trkpt>
      <trkpt lat="45.19354" lon="5.65003">
        <ele>1086</ele>
        <time>2011-07-07T06:16:24Z</time>
      </trkpt>
      <trkpt lat="45.19349" lon="5.65008">
        <ele>1086</ele>
        <time>2011-07-07T06:16:26Z</time>
      </trkpt>
      <trkpt lat="45.19341" lon="5.65018">
        <ele>1084</ele>
        <time>2011-07-07T06:16:28Z</time>
      </trkpt>
      <trkpt lat="45.19328" lon="5.65034">
        <ele>1084</ele>
        <time>2011-07-07T06:16:32Z</time>
      </trkpt>
      <trkpt lat="45.19324" lon="5.65034">
        <ele>1083</ele>
        <time>2011-07-07T06:16:33Z</time>
      </trkpt>
      <trkpt lat="45.19313" lon="5.65035">
        <ele>1083</ele>
        <time>2011-07-07T06:16:35Z</time>
      </trkpt>
      <trkpt lat="45.19309" lon="5.65037">
        <ele>1082</ele>
        <time>2011-07-07T06:16:36Z</time>
      </trkpt>
      <trkpt lat="45.19302" lon="5.65042">
        <ele>1081</ele>
        <time>2011-07-07T06:16:38Z</time>
      </trkpt>
      <trkpt lat="45.19293" lon="5.65045">
        <ele>1079</ele>
        <time>2011-07-07T06:16:40Z</time>
      </trkpt>
      <trkpt lat="45.19288" lon="5.65048">
        <ele>1078</ele>
        <time>2011-07-07T06:16:41Z</time>
      </trkpt>
      <trkpt lat="45.1928" lon="5.65051">
        <ele>1074</ele>
        <time>2011-07-07T06:16:43Z</time>
      </trkpt>
      <trkpt lat="45.19273" lon="5.65051">
        <ele>1073</ele>
        <time>2011-07-07T06:16:45Z</time>
      </trkpt>
      <trkpt lat="45.19268" lon="5.65052">
        <ele>1073</ele>
        <time>2011-07-07T06:16:47Z</time>
      </trkpt>
      <trkpt lat="45.19268" lon="5.65052">
        <ele>1073</ele>
        <time>2011-07-07T06:16:47Z</time>
      </trkpt>
      <trkpt lat="45.19268" lon="5.65052">
        <ele>1073</ele>
        <time>2011-07-07T06:16:55Z</time>
      </trkpt>
      <trkpt lat="45.19269" lon="5.65059">
        <ele>1073</ele>
        <time>2011-07-07T06:17:08Z</time>
      </trkpt>
      <trkpt lat="45.19267" lon="5.65066">
        <ele>1073</ele>
        <time>2011-07-07T06:17:17Z</time>
      </trkpt>
      <trkpt lat="45.19272" lon="5.65067">
        <ele>1074</ele>
        <time>2011-07-07T06:17:34Z</time>
      </trkpt>
      <trkpt lat="45.19224" lon="5.65089">
        <ele>1069</ele>
        <time>2011-07-07T06:18:16Z</time>
      </trkpt>
      <trkpt lat="45.19215" lon="5.6509">
        <ele>1068</ele>
        <time>2011-07-07T06:18:20Z</time>
      </trkpt>
      <trkpt lat="45.19202" lon="5.65095">
        <ele>1065</ele>
        <time>2011-07-07T06:18:24Z</time>
      </trkpt>
      <trkpt lat="45.1919" lon="5.65096">
        <ele>1065</ele>
        <time>2011-07-07T06:18:28Z</time>
      </trkpt>
      <trkpt lat="45.19183" lon="5.65094">
        <ele>1064</ele>
        <time>2011-07-07T06:18:31Z</time>
      </trkpt>
      <trkpt lat="45.19175" lon="5.65101">
        <ele>1063</ele>
        <time>2011-07-07T06:18:36Z</time>
      </trkpt>
      <trkpt lat="45.1917" lon="5.65105">
        <ele>1063</ele>
        <time>2011-07-07T06:18:39Z</time>
      </trkpt>
      <trkpt lat="45.1917" lon="5.65105">
        <ele>1063</ele>
        <time>2011-07-07T06:18:39Z</time>
      </trkpt>
      <trkpt lat="45.1917" lon="5.65105">
        <ele>1062</ele>
        <time>2011-07-07T06:18:40Z</time>
      </trkpt>
      <trkpt lat="45.19172" lon="5.65112">
        <ele>1064</ele>
        <time>2011-07-07T06:18:45Z</time>
      </trkpt>
      <trkpt lat="45.19168" lon="5.6511">
        <ele>1064</ele>
        <time>2011-07-07T06:19:16Z</time>
      </trkpt>
      <trkpt lat="45.19168" lon="5.6511">
        <ele>1064</ele>
        <time>2011-07-07T06:19:16Z</time>
      </trkpt>
      <trkpt lat="45.19168" lon="5.6511">
        <ele>1064</ele>
        <time>2011-07-07T06:19:18Z</time>
      </trkpt>
      <trkpt lat="45.1915" lon="5.65111">
        <ele>1066</ele>
        <time>2011-07-07T06:19:20Z</time>
      </trkpt>
      <trkpt lat="45.19123" lon="5.65108">
        <ele>1063</ele>
        <time>2011-07-07T06:19:23Z</time>
      </trkpt>
      <trkpt lat="45.19117" lon="5.65108">
        <ele>1064</ele>
        <time>2011-07-07T06:19:25Z</time>
      </trkpt>
      <trkpt lat="45.1911" lon="5.65108">
        <ele>1064</ele>
        <time>2011-07-07T06:19:27Z</time>
      </trkpt>
      <trkpt lat="45.19072" lon="5.65113">
        <ele>1058</ele>
        <time>2011-07-07T06:19:32Z</time>
      </trkpt>
      <trkpt lat="45.19065" lon="5.65113">
        <ele>1056</ele>
        <time>2011-07-07T06:19:33Z</time>
      </trkpt>
      <trkpt lat="45.19058" lon="5.65114">
        <ele>1055</ele>
        <time>2011-07-07T06:19:34Z</time>
      </trkpt>
      <trkpt lat="45.19053" lon="5.65114">
        <ele>1054</ele>
        <time>2011-07-07T06:19:35Z</time>
      </trkpt>
      <trkpt lat="45.19046" lon="5.65113">
        <ele>1052</ele>
        <time>2011-07-07T06:19:36Z</time>
      </trkpt>
      <trkpt lat="45.19038" lon="5.65111">
        <ele>1051</ele>
        <time>2011-07-07T06:19:38Z</time>
      </trkpt>
      <trkpt lat="45.19033" lon="5.65109">
        <ele>1050</ele>
        <time>2011-07-07T06:19:39Z</time>
      </trkpt>
      <trkpt lat="45.19028" lon="5.6511">
        <ele>1049</ele>
        <time>2011-07-07T06:19:40Z</time>
      </trkpt>
      <trkpt lat="45.19021" lon="5.6511">
        <ele>1049</ele>
        <time>2011-07-07T06:19:42Z</time>
      </trkpt>
      <trkpt lat="45.19014" lon="5.65115">
        <ele>1046</ele>
        <time>2011-07-07T06:19:44Z</time>
      </trkpt>
      <trkpt lat="45.19005" lon="5.65119">
        <ele>1041</ele>
        <time>2011-07-07T06:19:46Z</time>
      </trkpt>
      <trkpt lat="45.19001" lon="5.65123">
        <ele>1039</ele>
        <time>2011-07-07T06:19:47Z</time>
      </trkpt>
      <trkpt lat="45.18995" lon="5.65125">
        <ele>1036</ele>
        <time>2011-07-07T06:19:49Z</time>
      </trkpt>
      <trkpt lat="45.18988" lon="5.65127">
        <ele>1035</ele>
        <time>2011-07-07T06:19:51Z</time>
      </trkpt>
      <trkpt lat="45.18982" lon="5.6513">
        <ele>1033</ele>
        <time>2011-07-07T06:19:53Z</time>
      </trkpt>
      <trkpt lat="45.18975" lon="5.65133">
        <ele>1030</ele>
        <time>2011-07-07T06:19:56Z</time>
      </trkpt>
      <trkpt lat="45.1897" lon="5.65135">
        <ele>1029</ele>
        <time>2011-07-07T06:19:58Z</time>
      </trkpt>
      <trkpt lat="45.18964" lon="5.65139">
        <ele>1029</ele>
        <time>2011-07-07T06:20:00Z</time>
      </trkpt>
      <trkpt lat="45.18957" lon="5.65141">
        <ele>1028</ele>
        <time>2011-07-07T06:20:02Z</time>
      </trkpt>
      <trkpt lat="45.1895" lon="5.65144">
        <ele>1027</ele>
        <time>2011-07-07T06:20:04Z</time>
      </trkpt>
      <trkpt lat="45.18946" lon="5.65146">
        <ele>1027</ele>
        <time>2011-07-07T06:20:05Z</time>
      </trkpt>
      <trkpt lat="45.18938" lon="5.65147">
        <ele>1026</ele>
        <time>2011-07-07T06:20:07Z</time>
      </trkpt>
      <trkpt lat="45.18931" lon="5.65149">
        <ele>1025</ele>
        <time>2011-07-07T06:20:09Z</time>
      </trkpt>
      <trkpt lat="45.18924" lon="5.65152">
        <ele>1023</ele>
        <time>2011-07-07T06:20:11Z</time>
      </trkpt>
      <trkpt lat="45.18918" lon="5.65155">
        <ele>1022</ele>
        <time>2011-07-07T06:20:13Z</time>
      </trkpt>
      <trkpt lat="45.18908" lon="5.65155">
        <ele>1021</ele>
        <time>2011-07-07T06:20:15Z</time>
      </trkpt>
      <trkpt lat="45.18901" lon="5.65158">
        <ele>1020</ele>
        <time>2011-07-07T06:20:17Z</time>
      </trkpt>
      <trkpt lat="45.18894" lon="5.65158">
        <ele>1019</ele>
        <time>2011-07-07T06:20:19Z</time>
      </trkpt>
      <trkpt lat="45.18888" lon="5.65154">
        <ele>1019</ele>
        <time>2011-07-07T06:20:21Z</time>
      </trkpt>
      <trkpt lat="45.18882" lon="5.65153">
        <ele>1017</ele>
        <time>2011-07-07T06:20:23Z</time>
      </trkpt>
      <trkpt lat="45.18874" lon="5.65153">
        <ele>1018</ele>
        <time>2011-07-07T06:20:25Z</time>
      </trkpt>
      <trkpt lat="45.18871" lon="5.65159">
        <ele>1017</ele>
        <time>2011-07-07T06:20:26Z</time>
      </trkpt>
      <trkpt lat="45.18867" lon="5.65159">
        <ele>1016</ele>
        <time>2011-07-07T06:20:27Z</time>
      </trkpt>
      <trkpt lat="45.18856" lon="5.65161">
        <ele>1015</ele>
        <time>2011-07-07T06:20:30Z</time>
      </trkpt>
      <trkpt lat="45.1885" lon="5.65164">
        <ele>1015</ele>
        <time>2011-07-07T06:20:33Z</time>
      </trkpt>
      <trkpt lat="45.18847" lon="5.65168">
        <ele>1014</ele>
        <time>2011-07-07T06:20:38Z</time>
      </trkpt>
      <trkpt lat="45.18841" lon="5.65168">
        <ele>1010</ele>
        <time>2011-07-07T06:20:56Z</time>
      </trkpt>
      <trkpt lat="45.18836" lon="5.65171">
        <ele>1011</ele>
        <time>2011-07-07T06:20:58Z</time>
      </trkpt>
      <trkpt lat="45.18826" lon="5.65174">
        <ele>1010</ele>
        <time>2011-07-07T06:21:00Z</time>
      </trkpt>
      <trkpt lat="45.18822" lon="5.65174">
        <ele>1009</ele>
        <time>2011-07-07T06:21:01Z</time>
      </trkpt>
      <trkpt lat="45.18816" lon="5.65175">
        <ele>1008</ele>
        <time>2011-07-07T06:21:02Z</time>
      </trkpt>
      <trkpt lat="45.18811" lon="5.65176">
        <ele>1006</ele>
        <time>2011-07-07T06:21:03Z</time>
      </trkpt>
      <trkpt lat="45.18803" lon="5.65175">
        <ele>1004</ele>
        <time>2011-07-07T06:21:05Z</time>
      </trkpt>
      <trkpt lat="45.18798" lon="5.65175">
        <ele>1004</ele>
        <time>2011-07-07T06:21:06Z</time>
      </trkpt>
      <trkpt lat="45.18792" lon="5.65176">
        <ele>1003</ele>
        <time>2011-07-07T06:21:07Z</time>
      </trkpt>
      <trkpt lat="45.18782" lon="5.65178">
        <ele>1002</ele>
        <time>2011-07-07T06:21:09Z</time>
      </trkpt>
      <trkpt lat="45.18775" lon="5.65179">
        <ele>1002</ele>
        <time>2011-07-07T06:21:10Z</time>
      </trkpt>
      <trkpt lat="45.1877" lon="5.65182">
        <ele>1001</ele>
        <time>2011-07-07T06:21:11Z</time>
      </trkpt>
      <trkpt lat="45.18762" lon="5.65185">
        <ele>999</ele>
        <time>2011-07-07T06:21:13Z</time>
      </trkpt>
      <trkpt lat="45.18753" lon="5.65188">
        <ele>998</ele>
        <time>2011-07-07T06:21:15Z</time>
      </trkpt>
      <trkpt lat="45.18745" lon="5.65193">
        <ele>998</ele>
        <time>2011-07-07T06:21:17Z</time>
      </trkpt>
      <trkpt lat="45.18739" lon="5.65197">
        <ele>996</ele>
        <time>2011-07-07T06:21:18Z</time>
      </trkpt>
      <trkpt lat="45.18736" lon="5.65202">
        <ele>994</ele>
        <time>2011-07-07T06:21:19Z</time>
      </trkpt>
      <trkpt lat="45.18731" lon="5.65205">
        <ele>994</ele>
        <time>2011-07-07T06:21:20Z</time>
      </trkpt>
      <trkpt lat="45.18726" lon="5.65208">
        <ele>993</ele>
        <time>2011-07-07T06:21:21Z</time>
      </trkpt>
      <trkpt lat="45.18721" lon="5.6521">
        <ele>992</ele>
        <time>2011-07-07T06:21:22Z</time>
      </trkpt>
      <trkpt lat="45.18715" lon="5.65212">
        <ele>991</ele>
        <time>2011-07-07T06:21:23Z</time>
      </trkpt>
      <trkpt lat="45.1871" lon="5.65214">
        <ele>991</ele>
        <time>2011-07-07T06:21:24Z</time>
      </trkpt>
      <trkpt lat="45.18702" lon="5.65216">
        <ele>990</ele>
        <time>2011-07-07T06:21:26Z</time>
      </trkpt>
      <trkpt lat="45.18694" lon="5.65218">
        <ele>987</ele>
        <time>2011-07-07T06:21:28Z</time>
      </trkpt>
      <trkpt lat="45.18687" lon="5.65215">
        <ele>986</ele>
        <time>2011-07-07T06:21:30Z</time>
      </trkpt>
      <trkpt lat="45.18678" lon="5.65217">
        <ele>984</ele>
        <time>2011-07-07T06:21:32Z</time>
      </trkpt>
      <trkpt lat="45.18674" lon="5.65219">
        <ele>984</ele>
        <time>2011-07-07T06:21:33Z</time>
      </trkpt>
      <trkpt lat="45.18669" lon="5.65214">
        <ele>983</ele>
        <time>2011-07-07T06:21:35Z</time>
      </trkpt>
      <trkpt lat="45.18664" lon="5.65212">
        <ele>982</ele>
        <time>2011-07-07T06:21:36Z</time>
      </trkpt>
      <trkpt lat="45.18654" lon="5.65213">
        <ele>980</ele>
        <time>2011-07-07T06:21:38Z</time>
      </trkpt>
      <trkpt lat="45.18648" lon="5.65214">
        <ele>979</ele>
        <time>2011-07-07T06:21:39Z</time>
      </trkpt>
      <trkpt lat="45.18641" lon="5.65215">
        <ele>979</ele>
        <time>2011-07-07T06:21:41Z</time>
      </trkpt>
      <trkpt lat="45.18634" lon="5.65218">
        <ele>978</ele>
        <time>2011-07-07T06:21:43Z</time>
      </trkpt>
      <trkpt lat="45.18625" lon="5.6522">
        <ele>977</ele>
        <time>2011-07-07T06:21:45Z</time>
      </trkpt>
      <trkpt lat="45.18618" lon="5.65221">
        <ele>977</ele>
        <time>2011-07-07T06:21:47Z</time>
      </trkpt>
      <trkpt lat="45.18613" lon="5.65224">
        <ele>977</ele>
        <time>2011-07-07T06:21:48Z</time>
      </trkpt>
      <trkpt lat="45.18609" lon="5.65226">
        <ele>976</ele>
        <time>2011-07-07T06:21:49Z</time>
      </trkpt>
      <trkpt lat="45.18604" lon="5.65228">
        <ele>976</ele>
        <time>2011-07-07T06:21:50Z</time>
      </trkpt>
      <trkpt lat="45.18597" lon="5.6523">
        <ele>975</ele>
        <time>2011-07-07T06:21:51Z</time>
      </trkpt>
      <trkpt lat="45.18592" lon="5.65234">
        <ele>975</ele>
        <time>2011-07-07T06:21:52Z</time>
      </trkpt>
      <trkpt lat="45.18583" lon="5.65232">
        <ele>972</ele>
        <time>2011-07-07T06:21:54Z</time>
      </trkpt>
      <trkpt lat="45.18572" lon="5.65237">
        <ele>971</ele>
        <time>2011-07-07T06:21:56Z</time>
      </trkpt>
      <trkpt lat="45.18564" lon="5.65241">
        <ele>971</ele>
        <time>2011-07-07T06:21:57Z</time>
      </trkpt>
      <trkpt lat="45.18556" lon="5.65243">
        <ele>970</ele>
        <time>2011-07-07T06:21:58Z</time>
      </trkpt>
      <trkpt lat="45.18551" lon="5.65245">
        <ele>969</ele>
        <time>2011-07-07T06:21:59Z</time>
      </trkpt>
      <trkpt lat="45.18546" lon="5.65248">
        <ele>969</ele>
        <time>2011-07-07T06:22:00Z</time>
      </trkpt>
      <trkpt lat="45.18537" lon="5.65249">
        <ele>968</ele>
        <time>2011-07-07T06:22:01Z</time>
      </trkpt>
      <trkpt lat="45.18531" lon="5.6525">
        <ele>968</ele>
        <time>2011-07-07T06:22:02Z</time>
      </trkpt>
      <trkpt lat="45.18526" lon="5.6525">
        <ele>967</ele>
        <time>2011-07-07T06:22:03Z</time>
      </trkpt>
      <trkpt lat="45.1852" lon="5.65249">
        <ele>966</ele>
        <time>2011-07-07T06:22:04Z</time>
      </trkpt>
      <trkpt lat="45.18517" lon="5.65241">
        <ele>965</ele>
        <time>2011-07-07T06:22:05Z</time>
      </trkpt>
      <trkpt lat="45.1851" lon="5.65242">
        <ele>965</ele>
        <time>2011-07-07T06:22:06Z</time>
      </trkpt>
      <trkpt lat="45.18503" lon="5.65241">
        <ele>964</ele>
        <time>2011-07-07T06:22:07Z</time>
      </trkpt>
      <trkpt lat="45.18499" lon="5.65242">
        <ele>964</ele>
        <time>2011-07-07T06:22:08Z</time>
      </trkpt>
      <trkpt lat="45.18491" lon="5.65245">
        <ele>963</ele>
        <time>2011-07-07T06:22:09Z</time>
      </trkpt>
      <trkpt lat="45.18485" lon="5.6525">
        <ele>963</ele>
        <time>2011-07-07T06:22:10Z</time>
      </trkpt>
      <trkpt lat="45.1848" lon="5.65252">
        <ele>961</ele>
        <time>2011-07-07T06:22:11Z</time>
      </trkpt>
      <trkpt lat="45.18475" lon="5.65255">
        <ele>960</ele>
        <time>2011-07-07T06:22:12Z</time>
      </trkpt>
      <trkpt lat="45.18467" lon="5.65255">
        <ele>958</ele>
        <time>2011-07-07T06:22:14Z</time>
      </trkpt>
      <trkpt lat="45.18462" lon="5.65258">
        <ele>958</ele>
        <time>2011-07-07T06:22:15Z</time>
      </trkpt>
      <trkpt lat="45.18455" lon="5.65261">
        <ele>957</ele>
        <time>2011-07-07T06:22:16Z</time>
      </trkpt>
      <trkpt lat="45.1845" lon="5.65263">
        <ele>957</ele>
        <time>2011-07-07T06:22:17Z</time>
      </trkpt>
      <trkpt lat="45.18444" lon="5.65263">
        <ele>957</ele>
        <time>2011-07-07T06:22:18Z</time>
      </trkpt>
      <trkpt lat="45.1844" lon="5.65265">
        <ele>956</ele>
        <time>2011-07-07T06:22:19Z</time>
      </trkpt>
      <trkpt lat="45.18433" lon="5.65265">
        <ele>956</ele>
        <time>2011-07-07T06:22:20Z</time>
      </trkpt>
      <trkpt lat="45.18426" lon="5.65267">
        <ele>955</ele>
        <time>2011-07-07T06:22:21Z</time>
      </trkpt>
      <trkpt lat="45.1842" lon="5.65266">
        <ele>954</ele>
        <time>2011-07-07T06:22:22Z</time>
      </trkpt>
      <trkpt lat="45.18412" lon="5.65268">
        <ele>953</ele>
        <time>2011-07-07T06:22:23Z</time>
      </trkpt>
      <trkpt lat="45.18404" lon="5.65268">
        <ele>952</ele>
        <time>2011-07-07T06:22:24Z</time>
      </trkpt>
      <trkpt lat="45.18398" lon="5.65272">
        <ele>951</ele>
        <time>2011-07-07T06:22:25Z</time>
      </trkpt>
      <trkpt lat="45.18391" lon="5.65274">
        <ele>951</ele>
        <time>2011-07-07T06:22:26Z</time>
      </trkpt>
      <trkpt lat="45.18385" lon="5.65274">
        <ele>950</ele>
        <time>2011-07-07T06:22:27Z</time>
      </trkpt>
      <trkpt lat="45.18376" lon="5.65278">
        <ele>948</ele>
        <time>2011-07-07T06:22:28Z</time>
      </trkpt>
      <trkpt lat="45.18364" lon="5.65283">
        <ele>947</ele>
        <time>2011-07-07T06:22:30Z</time>
      </trkpt>
      <trkpt lat="45.18358" lon="5.65283">
        <ele>945</ele>
        <time>2011-07-07T06:22:31Z</time>
      </trkpt>
      <trkpt lat="45.18351" lon="5.65286">
        <ele>943</ele>
        <time>2011-07-07T06:22:32Z</time>
      </trkpt>
      <trkpt lat="45.18342" lon="5.65289">
        <ele>942</ele>
        <time>2011-07-07T06:22:33Z</time>
      </trkpt>
      <trkpt lat="45.18333" lon="5.65289">
        <ele>938</ele>
        <time>2011-07-07T06:22:34Z</time>
      </trkpt>
      <trkpt lat="45.18328" lon="5.65291">
        <ele>936</ele>
        <time>2011-07-07T06:22:35Z</time>
      </trkpt>
      <trkpt lat="45.18323" lon="5.65285">
        <ele>933</ele>
        <time>2011-07-07T06:22:37Z</time>
      </trkpt>
      <trkpt lat="45.18317" lon="5.65285">
        <ele>932</ele>
        <time>2011-07-07T06:22:39Z</time>
      </trkpt>
      <trkpt lat="45.18307" lon="5.65288">
        <ele>931</ele>
        <time>2011-07-07T06:22:41Z</time>
      </trkpt>
      <trkpt lat="45.18301" lon="5.6529">
        <ele>930</ele>
        <time>2011-07-07T06:22:42Z</time>
      </trkpt>
      <trkpt lat="45.18294" lon="5.65292">
        <ele>930</ele>
        <time>2011-07-07T06:22:43Z</time>
      </trkpt>
      <trkpt lat="45.18288" lon="5.65295">
        <ele>930</ele>
        <time>2011-07-07T06:22:44Z</time>
      </trkpt>
      <trkpt lat="45.18282" lon="5.65299">
        <ele>929</ele>
        <time>2011-07-07T06:22:45Z</time>
      </trkpt>
      <trkpt lat="45.18275" lon="5.65302">
        <ele>928</ele>
        <time>2011-07-07T06:22:46Z</time>
      </trkpt>
      <trkpt lat="45.1827" lon="5.65306">
        <ele>926</ele>
        <time>2011-07-07T06:22:47Z</time>
      </trkpt>
      <trkpt lat="45.18265" lon="5.65309">
        <ele>925</ele>
        <time>2011-07-07T06:22:48Z</time>
      </trkpt>
      <trkpt lat="45.18254" lon="5.65314">
        <ele>922</ele>
        <time>2011-07-07T06:22:50Z</time>
      </trkpt>
      <trkpt lat="45.18245" lon="5.65322">
        <ele>918</ele>
        <time>2011-07-07T06:22:52Z</time>
      </trkpt>
      <trkpt lat="45.18241" lon="5.65329">
        <ele>915</ele>
        <time>2011-07-07T06:22:54Z</time>
      </trkpt>
      <trkpt lat="45.18237" lon="5.65334">
        <ele>913</ele>
        <time>2011-07-07T06:22:56Z</time>
      </trkpt>
      <trkpt lat="45.1824" lon="5.65343">
        <ele>908</ele>
        <time>2011-07-07T06:23:01Z</time>
      </trkpt>
      <trkpt lat="45.18239" lon="5.6535">
        <ele>899</ele>
        <time>2011-07-07T06:23:17Z</time>
      </trkpt>
      <trkpt lat="45.18239" lon="5.6535">
        <ele>899</ele>
        <time>2011-07-07T06:23:17Z</time>
      </trkpt>
      <trkpt lat="45.18239" lon="5.6535">
        <ele>898</ele>
        <time>2011-07-07T06:23:18Z</time>
      </trkpt>
      <trkpt lat="45.18228" lon="5.65338">
        <ele>897</ele>
        <time>2011-07-07T06:23:38Z</time>
      </trkpt>
      <trkpt lat="45.182" lon="5.65325">
        <ele>890</ele>
        <time>2011-07-07T06:23:41Z</time>
      </trkpt>
      <trkpt lat="45.18184" lon="5.65315">
        <ele>886</ele>
        <time>2011-07-07T06:23:44Z</time>
      </trkpt>
      <trkpt lat="45.18169" lon="5.65314">
        <ele>884</ele>
        <time>2011-07-07T06:23:47Z</time>
      </trkpt>
      <trkpt lat="45.1815" lon="5.65311">
        <ele>883</ele>
        <time>2011-07-07T06:23:50Z</time>
      </trkpt>
      <trkpt lat="45.18126" lon="5.65309">
        <ele>881</ele>
        <time>2011-07-07T06:23:53Z</time>
      </trkpt>
      <trkpt lat="45.18105" lon="5.65304">
        <ele>880</ele>
        <time>2011-07-07T06:23:56Z</time>
      </trkpt>
      <trkpt lat="45.18087" lon="5.65301">
        <ele>880</ele>
        <time>2011-07-07T06:23:59Z</time>
      </trkpt>
      <trkpt lat="45.18058" lon="5.65289">
        <ele>877</ele>
        <time>2011-07-07T06:24:02Z</time>
      </trkpt>
      <trkpt lat="45.18032" lon="5.65291">
        <ele>872</ele>
        <time>2011-07-07T06:24:05Z</time>
      </trkpt>
      <trkpt lat="45.18024" lon="5.65296">
        <ele>870</ele>
        <time>2011-07-07T06:24:07Z</time>
      </trkpt>
      <trkpt lat="45.18017" lon="5.65299">
        <ele>869</ele>
        <time>2011-07-07T06:24:09Z</time>
      </trkpt>
      <trkpt lat="45.18007" lon="5.65298">
        <ele>867</ele>
        <time>2011-07-07T06:24:11Z</time>
      </trkpt>
      <trkpt lat="45.18001" lon="5.65294">
        <ele>866</ele>
        <time>2011-07-07T06:24:13Z</time>
      </trkpt>
      <trkpt lat="45.1799" lon="5.65296">
        <ele>867</ele>
        <time>2011-07-07T06:24:15Z</time>
      </trkpt>
      <trkpt lat="45.17972" lon="5.65298">
        <ele>867</ele>
        <time>2011-07-07T06:24:18Z</time>
      </trkpt>
      <trkpt lat="45.17952" lon="5.65301">
        <ele>861</ele>
        <time>2011-07-07T06:24:21Z</time>
      </trkpt>
      <trkpt lat="45.1794" lon="5.65307">
        <ele>861</ele>
        <time>2011-07-07T06:24:24Z</time>
      </trkpt>
      <trkpt lat="45.17952" lon="5.65324">
        <ele>841</ele>
        <time>2011-07-07T06:24:27Z</time>
      </trkpt>
      <trkpt lat="45.17952" lon="5.65324">
        <ele>841</ele>
        <time>2011-07-07T06:24:27Z</time>
      </trkpt>
      <trkpt lat="45.17952" lon="5.65324">
        <ele>838</ele>
        <time>2011-07-07T06:24:32Z</time>
      </trkpt>
      <trkpt lat="45.17954" lon="5.6533">
        <ele>830</ele>
        <time>2011-07-07T06:24:41Z</time>
      </trkpt>
      <trkpt lat="45.17953" lon="5.65337">
        <ele>827</ele>
        <time>2011-07-07T06:24:48Z</time>
      </trkpt>
      <trkpt lat="45.17953" lon="5.65337">
        <ele>827</ele>
        <time>2011-07-07T06:24:48Z</time>
      </trkpt>
      <trkpt lat="45.17953" lon="5.65337">
        <ele>825</ele>
        <time>2011-07-07T06:24:50Z</time>
      </trkpt>
      <trkpt lat="45.17946" lon="5.65338">
        <ele>827</ele>
        <time>2011-07-07T06:24:58Z</time>
      </trkpt>
      <trkpt lat="45.17942" lon="5.65345">
        <ele>828</ele>
        <time>2011-07-07T06:25:00Z</time>
      </trkpt>
      <trkpt lat="45.17937" lon="5.65348">
        <ele>825</ele>
        <time>2011-07-07T06:25:11Z</time>
      </trkpt>
      <trkpt lat="45.17933" lon="5.65353">
        <ele>825</ele>
        <time>2011-07-07T06:25:15Z</time>
      </trkpt>
      <trkpt lat="45.17928" lon="5.65355">
        <ele>822</ele>
        <time>2011-07-07T06:25:22Z</time>
      </trkpt>
      <trkpt lat="45.17929" lon="5.65362">
        <ele>819</ele>
        <time>2011-07-07T06:25:37Z</time>
      </trkpt>
      <trkpt lat="45.17929" lon="5.65362">
        <ele>819</ele>
        <time>2011-07-07T06:25:37Z</time>
      </trkpt>
      <trkpt lat="45.17929" lon="5.65362">
        <ele>819</ele>
        <time>2011-07-07T06:25:38Z</time>
      </trkpt>
      <trkpt lat="45.17918" lon="5.65371">
        <ele>821</ele>
        <time>2011-07-07T06:26:21Z</time>
      </trkpt>
      <trkpt lat="45.17904" lon="5.65374">
        <ele>821</ele>
        <time>2011-07-07T06:26:25Z</time>
      </trkpt>
      <trkpt lat="45.17895" lon="5.65375">
        <ele>820</ele>
        <time>2011-07-07T06:26:26Z</time>
      </trkpt>
      <trkpt lat="45.17885" lon="5.65374">
        <ele>819</ele>
        <time>2011-07-07T06:26:28Z</time>
      </trkpt>
      <trkpt lat="45.17876" lon="5.65381">
        <ele>819</ele>
        <time>2011-07-07T06:26:30Z</time>
      </trkpt>
      <trkpt lat="45.1787" lon="5.65385">
        <ele>819</ele>
        <time>2011-07-07T06:26:31Z</time>
      </trkpt>
      <trkpt lat="45.17864" lon="5.6539">
        <ele>819</ele>
        <time>2011-07-07T06:26:33Z</time>
      </trkpt>
      <trkpt lat="45.17855" lon="5.65392">
        <ele>818</ele>
        <time>2011-07-07T06:26:35Z</time>
      </trkpt>
      <trkpt lat="45.17849" lon="5.65395">
        <ele>816</ele>
        <time>2011-07-07T06:26:37Z</time>
      </trkpt>
      <trkpt lat="45.17845" lon="5.65401">
        <ele>815</ele>
        <time>2011-07-07T06:26:39Z</time>
      </trkpt>
      <trkpt lat="45.17839" lon="5.65404">
        <ele>814</ele>
        <time>2011-07-07T06:26:41Z</time>
      </trkpt>
      <trkpt lat="45.17834" lon="5.65405">
        <ele>814</ele>
        <time>2011-07-07T06:26:42Z</time>
      </trkpt>
      <trkpt lat="45.17826" lon="5.6541">
        <ele>812</ele>
        <time>2011-07-07T06:26:44Z</time>
      </trkpt>
      <trkpt lat="45.17823" lon="5.65414">
        <ele>812</ele>
        <time>2011-07-07T06:26:46Z</time>
      </trkpt>
      <trkpt lat="45.17816" lon="5.6542">
        <ele>811</ele>
        <time>2011-07-07T06:26:48Z</time>
      </trkpt>
      <trkpt lat="45.1781" lon="5.65421">
        <ele>811</ele>
        <time>2011-07-07T06:26:50Z</time>
      </trkpt>
      <trkpt lat="45.17802" lon="5.6542">
        <ele>810</ele>
        <time>2011-07-07T06:26:52Z</time>
      </trkpt>
      <trkpt lat="45.17796" lon="5.65419">
        <ele>808</ele>
        <time>2011-07-07T06:26:54Z</time>
      </trkpt>
      <trkpt lat="45.17791" lon="5.6542">
        <ele>808</ele>
        <time>2011-07-07T06:26:55Z</time>
      </trkpt>
      <trkpt lat="45.17786" lon="5.6542">
        <ele>807</ele>
        <time>2011-07-07T06:26:56Z</time>
      </trkpt>
      <trkpt lat="45.1778" lon="5.6542">
        <ele>807</ele>
        <time>2011-07-07T06:26:58Z</time>
      </trkpt>
      <trkpt lat="45.17774" lon="5.6542">
        <ele>807</ele>
        <time>2011-07-07T06:27:00Z</time>
      </trkpt>
      <trkpt lat="45.17738" lon="5.65441">
        <ele>803</ele>
        <time>2011-07-07T06:27:10Z</time>
      </trkpt>
      <trkpt lat="45.17733" lon="5.6544">
        <ele>803</ele>
        <time>2011-07-07T06:27:11Z</time>
      </trkpt>
      <trkpt lat="45.17727" lon="5.65443">
        <ele>802</ele>
        <time>2011-07-07T06:27:12Z</time>
      </trkpt>
      <trkpt lat="45.1772" lon="5.65447">
        <ele>801</ele>
        <time>2011-07-07T06:27:13Z</time>
      </trkpt>
      <trkpt lat="45.17711" lon="5.65449">
        <ele>800</ele>
        <time>2011-07-07T06:27:15Z</time>
      </trkpt>
      <trkpt lat="45.17707" lon="5.65452">
        <ele>800</ele>
        <time>2011-07-07T06:27:16Z</time>
      </trkpt>
      <trkpt lat="45.17698" lon="5.65458">
        <ele>799</ele>
        <time>2011-07-07T06:27:18Z</time>
      </trkpt>
      <trkpt lat="45.17689" lon="5.65462">
        <ele>798</ele>
        <time>2011-07-07T06:27:20Z</time>
      </trkpt>
      <trkpt lat="45.17681" lon="5.65464">
        <ele>798</ele>
        <time>2011-07-07T06:27:21Z</time>
      </trkpt>
      <trkpt lat="45.17673" lon="5.6547">
        <ele>797</ele>
        <time>2011-07-07T06:27:23Z</time>
      </trkpt>
      <trkpt lat="45.17668" lon="5.65472">
        <ele>797</ele>
        <time>2011-07-07T06:27:24Z</time>
      </trkpt>
      <trkpt lat="45.17672" lon="5.65482">
        <ele>789</ele>
        <time>2011-07-07T06:27:27Z</time>
      </trkpt>
      <trkpt lat="45.17676" lon="5.65489">
        <ele>787</ele>
        <time>2011-07-07T06:27:34Z</time>
      </trkpt>
      <trkpt lat="45.17671" lon="5.65486">
        <ele>782</ele>
        <time>2011-07-07T06:27:53Z</time>
      </trkpt>
      <trkpt lat="45.17668" lon="5.65481">
        <ele>782</ele>
        <time>2011-07-07T06:27:56Z</time>
      </trkpt>
      <trkpt lat="45.17663" lon="5.65486">
        <ele>781</ele>
        <time>2011-07-07T06:28:01Z</time>
      </trkpt>
      <trkpt lat="45.17663" lon="5.65495">
        <ele>779</ele>
        <time>2011-07-07T06:28:04Z</time>
      </trkpt>
      <trkpt lat="45.17663" lon="5.65501">
        <ele>779</ele>
        <time>2011-07-07T06:28:06Z</time>
      </trkpt>
      <trkpt lat="45.17662" lon="5.6551">
        <ele>777</ele>
        <time>2011-07-07T06:28:10Z</time>
      </trkpt>
      <trkpt lat="45.17658" lon="5.65517">
        <ele>775</ele>
        <time>2011-07-07T06:28:13Z</time>
      </trkpt>
      <trkpt lat="45.17656" lon="5.65523">
        <ele>777</ele>
        <time>2011-07-07T06:28:15Z</time>
      </trkpt>
      <trkpt lat="45.17656" lon="5.6553">
        <ele>776</ele>
        <time>2011-07-07T06:28:18Z</time>
      </trkpt>
      <trkpt lat="45.17663" lon="5.65536">
        <ele>774</ele>
        <time>2011-07-07T06:28:20Z</time>
      </trkpt>
      <trkpt lat="45.1767" lon="5.65544">
        <ele>773</ele>
        <time>2011-07-07T06:28:22Z</time>
      </trkpt>
      <trkpt lat="45.17672" lon="5.65551">
        <ele>773</ele>
        <time>2011-07-07T06:28:23Z</time>
      </trkpt>
      <trkpt lat="45.17674" lon="5.65558">
        <ele>773</ele>
        <time>2011-07-07T06:28:24Z</time>
      </trkpt>
      <trkpt lat="45.1768" lon="5.65568">
        <ele>771</ele>
        <time>2011-07-07T06:28:26Z</time>
      </trkpt>
      <trkpt lat="45.17686" lon="5.65578">
        <ele>769</ele>
        <time>2011-07-07T06:28:28Z</time>
      </trkpt>
      <trkpt lat="45.17692" lon="5.65587">
        <ele>767</ele>
        <time>2011-07-07T06:28:30Z</time>
      </trkpt>
      <trkpt lat="45.17696" lon="5.65593">
        <ele>766</ele>
        <time>2011-07-07T06:28:31Z</time>
      </trkpt>
      <trkpt lat="45.17699" lon="5.65598">
        <ele>766</ele>
        <time>2011-07-07T06:28:32Z</time>
      </trkpt>
      <trkpt lat="45.17699" lon="5.65605">
        <ele>765</ele>
        <time>2011-07-07T06:28:33Z</time>
      </trkpt>
      <trkpt lat="45.17703" lon="5.6561">
        <ele>764</ele>
        <time>2011-07-07T06:28:34Z</time>
      </trkpt>
      <trkpt lat="45.17707" lon="5.6562">
        <ele>762</ele>
        <time>2011-07-07T06:28:36Z</time>
      </trkpt>
      <trkpt lat="45.17711" lon="5.6563">
        <ele>762</ele>
        <time>2011-07-07T06:28:38Z</time>
      </trkpt>
      <trkpt lat="45.17714" lon="5.65639">
        <ele>760</ele>
        <time>2011-07-07T06:28:40Z</time>
      </trkpt>
      <trkpt lat="45.17719" lon="5.65647">
        <ele>760</ele>
        <time>2011-07-07T06:28:42Z</time>
      </trkpt>
      <trkpt lat="45.17721" lon="5.65652">
        <ele>760</ele>
        <time>2011-07-07T06:28:44Z</time>
      </trkpt>
      <trkpt lat="45.17724" lon="5.65658">
        <ele>760</ele>
        <time>2011-07-07T06:28:47Z</time>
      </trkpt>
      <trkpt lat="45.17727" lon="5.65666">
        <ele>759</ele>
        <time>2011-07-07T06:28:50Z</time>
      </trkpt>
      <trkpt lat="45.17724" lon="5.65672">
        <ele>758</ele>
        <time>2011-07-07T06:28:52Z</time>
      </trkpt>
      <trkpt lat="45.17718" lon="5.65682">
        <ele>757</ele>
        <time>2011-07-07T06:28:54Z</time>
      </trkpt>
      <trkpt lat="45.17715" lon="5.65692">
        <ele>756</ele>
        <time>2011-07-07T06:28:56Z</time>
      </trkpt>
      <trkpt lat="45.17716" lon="5.65706">
        <ele>757</ele>
        <time>2011-07-07T06:28:58Z</time>
      </trkpt>
      <trkpt lat="45.17717" lon="5.65715">
        <ele>757</ele>
        <time>2011-07-07T06:29:00Z</time>
      </trkpt>
      <trkpt lat="45.17718" lon="5.65726">
        <ele>757</ele>
        <time>2011-07-07T06:29:02Z</time>
      </trkpt>
      <trkpt lat="45.17716" lon="5.65732">
        <ele>757</ele>
        <time>2011-07-07T06:29:06Z</time>
      </trkpt>
      <trkpt lat="45.17714" lon="5.65741">
        <ele>758</ele>
        <time>2011-07-07T06:29:09Z</time>
      </trkpt>
      <trkpt lat="45.17718" lon="5.65748">
        <ele>756</ele>
        <time>2011-07-07T06:29:11Z</time>
      </trkpt>
      <trkpt lat="45.17722" lon="5.65751">
        <ele>754</ele>
        <time>2011-07-07T06:29:16Z</time>
      </trkpt>
      <trkpt lat="45.17726" lon="5.65743">
        <ele>753</ele>
        <time>2011-07-07T06:29:22Z</time>
      </trkpt>
      <trkpt lat="45.17721" lon="5.65745">
        <ele>751</ele>
        <time>2011-07-07T06:29:26Z</time>
      </trkpt>
      <trkpt lat="45.17724" lon="5.65753">
        <ele>752</ele>
        <time>2011-07-07T06:29:28Z</time>
      </trkpt>
      <trkpt lat="45.17727" lon="5.65763">
        <ele>751</ele>
        <time>2011-07-07T06:29:30Z</time>
      </trkpt>
      <trkpt lat="45.17724" lon="5.65768">
        <ele>751</ele>
        <time>2011-07-07T06:29:31Z</time>
      </trkpt>
      <trkpt lat="45.17721" lon="5.65778">
        <ele>752</ele>
        <time>2011-07-07T06:29:33Z</time>
      </trkpt>
      <trkpt lat="45.17719" lon="5.65788">
        <ele>751</ele>
        <time>2011-07-07T06:29:35Z</time>
      </trkpt>
      <trkpt lat="45.1772" lon="5.65796">
        <ele>748</ele>
        <time>2011-07-07T06:29:36Z</time>
      </trkpt>
      <trkpt lat="45.17724" lon="5.65801">
        <ele>748</ele>
        <time>2011-07-07T06:29:37Z</time>
      </trkpt>
      <trkpt lat="45.17726" lon="5.65808">
        <ele>748</ele>
        <time>2011-07-07T06:29:39Z</time>
      </trkpt>
      <trkpt lat="45.17731" lon="5.65816">
        <ele>748</ele>
        <time>2011-07-07T06:29:42Z</time>
      </trkpt>
      <trkpt lat="45.17733" lon="5.65825">
        <ele>747</ele>
        <time>2011-07-07T06:29:44Z</time>
      </trkpt>
      <trkpt lat="45.1774" lon="5.65834">
        <ele>747</ele>
        <time>2011-07-07T06:29:46Z</time>
      </trkpt>
      <trkpt lat="45.17743" lon="5.6584">
        <ele>746</ele>
        <time>2011-07-07T06:29:47Z</time>
      </trkpt>
      <trkpt lat="45.17745" lon="5.65849">
        <ele>744</ele>
        <time>2011-07-07T06:29:48Z</time>
      </trkpt>
      <trkpt lat="45.17748" lon="5.65856">
        <ele>745</ele>
        <time>2011-07-07T06:29:49Z</time>
      </trkpt>
      <trkpt lat="45.17754" lon="5.65863">
        <ele>744</ele>
        <time>2011-07-07T06:29:50Z</time>
      </trkpt>
      <trkpt lat="45.17757" lon="5.65869">
        <ele>743</ele>
        <time>2011-07-07T06:29:51Z</time>
      </trkpt>
      <trkpt lat="45.17762" lon="5.65873">
        <ele>741</ele>
        <time>2011-07-07T06:29:52Z</time>
      </trkpt>
      <trkpt lat="45.17767" lon="5.65877">
        <ele>741</ele>
        <time>2011-07-07T06:29:53Z</time>
      </trkpt>
      <trkpt lat="45.17772" lon="5.65876">
        <ele>741</ele>
        <time>2011-07-07T06:29:54Z</time>
      </trkpt>
      <trkpt lat="45.17778" lon="5.65875">
        <ele>741</ele>
        <time>2011-07-07T06:29:55Z</time>
      </trkpt>
      <trkpt lat="45.17787" lon="5.65876">
        <ele>740</ele>
        <time>2011-07-07T06:29:57Z</time>
      </trkpt>
      <trkpt lat="45.17794" lon="5.65872">
        <ele>739</ele>
        <time>2011-07-07T06:29:59Z</time>
      </trkpt>
      <trkpt lat="45.17799" lon="5.65866">
        <ele>738</ele>
        <time>2011-07-07T06:30:01Z</time>
      </trkpt>
      <trkpt lat="45.17802" lon="5.65859">
        <ele>738</ele>
        <time>2011-07-07T06:30:03Z</time>
      </trkpt>
      <trkpt lat="45.17802" lon="5.65852">
        <ele>738</ele>
        <time>2011-07-07T06:30:05Z</time>
      </trkpt>
      <trkpt lat="45.17803" lon="5.65844">
        <ele>738</ele>
        <time>2011-07-07T06:30:07Z</time>
      </trkpt>
      <trkpt lat="45.17806" lon="5.65828">
        <ele>737</ele>
        <time>2011-07-07T06:30:09Z</time>
      </trkpt>
      <trkpt lat="45.17808" lon="5.65817">
        <ele>737</ele>
        <time>2011-07-07T06:30:10Z</time>
      </trkpt>
      <trkpt lat="45.17813" lon="5.65807">
        <ele>736</ele>
        <time>2011-07-07T06:30:12Z</time>
      </trkpt>
      <trkpt lat="45.17816" lon="5.65798">
        <ele>736</ele>
        <time>2011-07-07T06:30:14Z</time>
      </trkpt>
      <trkpt lat="45.1782" lon="5.65794">
        <ele>737</ele>
        <time>2011-07-07T06:30:16Z</time>
      </trkpt>
      <trkpt lat="45.17825" lon="5.65789">
        <ele>735</ele>
        <time>2011-07-07T06:30:18Z</time>
      </trkpt>
      <trkpt lat="45.17831" lon="5.65789">
        <ele>736</ele>
        <time>2011-07-07T06:30:20Z</time>
      </trkpt>
      <trkpt lat="45.17837" lon="5.6579">
        <ele>735</ele>
        <time>2011-07-07T06:30:22Z</time>
      </trkpt>
      <trkpt lat="45.17844" lon="5.65794">
        <ele>735</ele>
        <time>2011-07-07T06:30:24Z</time>
      </trkpt>
      <trkpt lat="45.17848" lon="5.65796">
        <ele>734</ele>
        <time>2011-07-07T06:30:25Z</time>
      </trkpt>
      <trkpt lat="45.17857" lon="5.65801">
        <ele>735</ele>
        <time>2011-07-07T06:30:27Z</time>
      </trkpt>
      <trkpt lat="45.17869" lon="5.6581">
        <ele>734</ele>
        <time>2011-07-07T06:30:30Z</time>
      </trkpt>
      <trkpt lat="45.17875" lon="5.65817">
        <ele>734</ele>
        <time>2011-07-07T06:30:32Z</time>
      </trkpt>
      <trkpt lat="45.1788" lon="5.65823">
        <ele>733</ele>
        <time>2011-07-07T06:30:34Z</time>
      </trkpt>
      <trkpt lat="45.17891" lon="5.65839">
        <ele>731</ele>
        <time>2011-07-07T06:30:36Z</time>
      </trkpt>
      <trkpt lat="45.17895" lon="5.65845">
        <ele>731</ele>
        <time>2011-07-07T06:30:37Z</time>
      </trkpt>
      <trkpt lat="45.17902" lon="5.65854">
        <ele>731</ele>
        <time>2011-07-07T06:30:39Z</time>
      </trkpt>
      <trkpt lat="45.17905" lon="5.65864">
        <ele>731</ele>
        <time>2011-07-07T06:30:41Z</time>
      </trkpt>
      <trkpt lat="45.1791" lon="5.65869">
        <ele>730</ele>
        <time>2011-07-07T06:30:42Z</time>
      </trkpt>
      <trkpt lat="45.17913" lon="5.65874">
        <ele>730</ele>
        <time>2011-07-07T06:30:43Z</time>
      </trkpt>
      <trkpt lat="45.17918" lon="5.65877">
        <ele>730</ele>
        <time>2011-07-07T06:30:44Z</time>
      </trkpt>
      <trkpt lat="45.17925" lon="5.6588">
        <ele>729</ele>
        <time>2011-07-07T06:30:45Z</time>
      </trkpt>
      <trkpt lat="45.17929" lon="5.65884">
        <ele>729</ele>
        <time>2011-07-07T06:30:46Z</time>
      </trkpt>
      <trkpt lat="45.17935" lon="5.6589">
        <ele>728</ele>
        <time>2011-07-07T06:30:47Z</time>
      </trkpt>
      <trkpt lat="45.17941" lon="5.65893">
        <ele>728</ele>
        <time>2011-07-07T06:30:49Z</time>
      </trkpt>
      <trkpt lat="45.17947" lon="5.65895">
        <ele>727</ele>
        <time>2011-07-07T06:30:51Z</time>
      </trkpt>
      <trkpt lat="45.17954" lon="5.65898">
        <ele>727</ele>
        <time>2011-07-07T06:30:53Z</time>
      </trkpt>
      <trkpt lat="45.1796" lon="5.65904">
        <ele>725</ele>
        <time>2011-07-07T06:30:56Z</time>
      </trkpt>
      <trkpt lat="45.17967" lon="5.65906">
        <ele>724</ele>
        <time>2011-07-07T06:30:58Z</time>
      </trkpt>
      <trkpt lat="45.17972" lon="5.65905">
        <ele>722</ele>
        <time>2011-07-07T06:31:00Z</time>
      </trkpt>
      <trkpt lat="45.17978" lon="5.65904">
        <ele>720</ele>
        <time>2011-07-07T06:31:02Z</time>
      </trkpt>
      <trkpt lat="45.17983" lon="5.65899">
        <ele>719</ele>
        <time>2011-07-07T06:31:03Z</time>
      </trkpt>
      <trkpt lat="45.17989" lon="5.659">
        <ele>713</ele>
        <time>2011-07-07T06:31:06Z</time>
      </trkpt>
      <trkpt lat="45.17993" lon="5.65908">
        <ele>711</ele>
        <time>2011-07-07T06:31:09Z</time>
      </trkpt>
      <trkpt lat="45.17997" lon="5.65913">
        <ele>710</ele>
        <time>2011-07-07T06:31:11Z</time>
      </trkpt>
      <trkpt lat="45.18" lon="5.65922">
        <ele>709</ele>
        <time>2011-07-07T06:31:13Z</time>
      </trkpt>
      <trkpt lat="45.18003" lon="5.65927">
        <ele>710</ele>
        <time>2011-07-07T06:31:14Z</time>
      </trkpt>
      <trkpt lat="45.18007" lon="5.65935">
        <ele>708</ele>
        <time>2011-07-07T06:31:16Z</time>
      </trkpt>
      <trkpt lat="45.18009" lon="5.65941">
        <ele>708</ele>
        <time>2011-07-07T06:31:17Z</time>
      </trkpt>
      <trkpt lat="45.18011" lon="5.65948">
        <ele>708</ele>
        <time>2011-07-07T06:31:18Z</time>
      </trkpt>
      <trkpt lat="45.18013" lon="5.65955">
        <ele>708</ele>
        <time>2011-07-07T06:31:19Z</time>
      </trkpt>
      <trkpt lat="45.18016" lon="5.65962">
        <ele>707</ele>
        <time>2011-07-07T06:31:20Z</time>
      </trkpt>
      <trkpt lat="45.18022" lon="5.65975">
        <ele>706</ele>
        <time>2011-07-07T06:31:22Z</time>
      </trkpt>
      <trkpt lat="45.18023" lon="5.65982">
        <ele>704</ele>
        <time>2011-07-07T06:31:23Z</time>
      </trkpt>
      <trkpt lat="45.18026" lon="5.65991">
        <ele>702</ele>
        <time>2011-07-07T06:31:24Z</time>
      </trkpt>
      <trkpt lat="45.18029" lon="5.65998">
        <ele>701</ele>
        <time>2011-07-07T06:31:25Z</time>
      </trkpt>
      <trkpt lat="45.18033" lon="5.66004">
        <ele>701</ele>
        <time>2011-07-07T06:31:26Z</time>
      </trkpt>
      <trkpt lat="45.18039" lon="5.66006">
        <ele>699</ele>
        <time>2011-07-07T06:31:27Z</time>
      </trkpt>
      <trkpt lat="45.18049" lon="5.66014">
        <ele>694</ele>
        <time>2011-07-07T06:31:30Z</time>
      </trkpt>
      <trkpt lat="45.18073" lon="5.66032">
        <ele>682</ele>
        <time>2011-07-07T06:32:06Z</time>
      </trkpt>
      <trkpt lat="45.18095" lon="5.66046">
        <ele>678</ele>
        <time>2011-07-07T06:32:09Z</time>
      </trkpt>
      <trkpt lat="45.18104" lon="5.66052">
        <ele>678</ele>
        <time>2011-07-07T06:32:11Z</time>
      </trkpt>
      <trkpt lat="45.18116" lon="5.66061">
        <ele>677</ele>
        <time>2011-07-07T06:32:13Z</time>
      </trkpt>
      <trkpt lat="45.1813" lon="5.66075">
        <ele>678</ele>
        <time>2011-07-07T06:32:15Z</time>
      </trkpt>
      <trkpt lat="45.18142" lon="5.66092">
        <ele>677</ele>
        <time>2011-07-07T06:32:17Z</time>
      </trkpt>
      <trkpt lat="45.18154" lon="5.66105">
        <ele>675</ele>
        <time>2011-07-07T06:32:19Z</time>
      </trkpt>
      <trkpt lat="45.18166" lon="5.6612">
        <ele>673</ele>
        <time>2011-07-07T06:32:21Z</time>
      </trkpt>
      <trkpt lat="45.18179" lon="5.66133">
        <ele>672</ele>
        <time>2011-07-07T06:32:23Z</time>
      </trkpt>
      <trkpt lat="45.18188" lon="5.66139">
        <ele>671</ele>
        <time>2011-07-07T06:32:25Z</time>
      </trkpt>
      <trkpt lat="45.18192" lon="5.66143">
        <ele>671</ele>
        <time>2011-07-07T06:32:27Z</time>
      </trkpt>
      <trkpt lat="45.18207" lon="5.66149">
        <ele>670</ele>
        <time>2011-07-07T06:32:34Z</time>
      </trkpt>
      <trkpt lat="45.18213" lon="5.66152">
        <ele>668</ele>
        <time>2011-07-07T06:32:37Z</time>
      </trkpt>
      <trkpt lat="45.18219" lon="5.66149">
        <ele>669</ele>
        <time>2011-07-07T06:32:41Z</time>
      </trkpt>
      <trkpt lat="45.18223" lon="5.66155">
        <ele>668</ele>
        <time>2011-07-07T06:32:43Z</time>
      </trkpt>
      <trkpt lat="45.18227" lon="5.66158">
        <ele>667</ele>
        <time>2011-07-07T06:32:44Z</time>
      </trkpt>
      <trkpt lat="45.18234" lon="5.66158">
        <ele>667</ele>
        <time>2011-07-07T06:32:46Z</time>
      </trkpt>
      <trkpt lat="45.18242" lon="5.6616">
        <ele>666</ele>
        <time>2011-07-07T06:32:48Z</time>
      </trkpt>
      <trkpt lat="45.18239" lon="5.66166">
        <ele>666</ele>
        <time>2011-07-07T06:32:49Z</time>
      </trkpt>
      <trkpt lat="45.18244" lon="5.66171">
        <ele>666</ele>
        <time>2011-07-07T06:32:51Z</time>
      </trkpt>
      <trkpt lat="45.18249" lon="5.66166">
        <ele>664</ele>
        <time>2011-07-07T06:32:54Z</time>
      </trkpt>
      <trkpt lat="45.18254" lon="5.66166">
        <ele>662</ele>
        <time>2011-07-07T06:32:56Z</time>
      </trkpt>
      <trkpt lat="45.1826" lon="5.66163">
        <ele>660</ele>
        <time>2011-07-07T06:32:58Z</time>
      </trkpt>
      <trkpt lat="45.18264" lon="5.6616">
        <ele>661</ele>
        <time>2011-07-07T06:33:00Z</time>
      </trkpt>
      <trkpt lat="45.18269" lon="5.66155">
        <ele>660</ele>
        <time>2011-07-07T06:33:02Z</time>
      </trkpt>
      <trkpt lat="45.18272" lon="5.6615">
        <ele>659</ele>
        <time>2011-07-07T06:33:04Z</time>
      </trkpt>
      <trkpt lat="45.18276" lon="5.66142">
        <ele>658</ele>
        <time>2011-07-07T06:33:06Z</time>
      </trkpt>
      <trkpt lat="45.1828" lon="5.66137">
        <ele>658</ele>
        <time>2011-07-07T06:33:07Z</time>
      </trkpt>
      <trkpt lat="45.18285" lon="5.6613">
        <ele>657</ele>
        <time>2011-07-07T06:33:09Z</time>
      </trkpt>
      <trkpt lat="45.18288" lon="5.66124">
        <ele>657</ele>
        <time>2011-07-07T06:33:10Z</time>
      </trkpt>
      <trkpt lat="45.1829" lon="5.66116">
        <ele>655</ele>
        <time>2011-07-07T06:33:12Z</time>
      </trkpt>
      <trkpt lat="45.18295" lon="5.66116">
        <ele>654</ele>
        <time>2011-07-07T06:33:14Z</time>
      </trkpt>
      <trkpt lat="45.18301" lon="5.6612">
        <ele>651</ele>
        <time>2011-07-07T06:33:16Z</time>
      </trkpt>
      <trkpt lat="45.18308" lon="5.66119">
        <ele>650</ele>
        <time>2011-07-07T06:33:19Z</time>
      </trkpt>
      <trkpt lat="45.18312" lon="5.66115">
        <ele>647</ele>
        <time>2011-07-07T06:33:29Z</time>
      </trkpt>
      <trkpt lat="45.18318" lon="5.66106">
        <ele>647</ele>
        <time>2011-07-07T06:33:36Z</time>
      </trkpt>
      <trkpt lat="45.18327" lon="5.661">
        <ele>649</ele>
        <time>2011-07-07T06:33:38Z</time>
      </trkpt>
      <trkpt lat="45.18334" lon="5.66096">
        <ele>648</ele>
        <time>2011-07-07T06:33:40Z</time>
      </trkpt>
      <trkpt lat="45.18344" lon="5.6609">
        <ele>647</ele>
        <time>2011-07-07T06:33:42Z</time>
      </trkpt>
      <trkpt lat="45.18352" lon="5.66087">
        <ele>647</ele>
        <time>2011-07-07T06:33:44Z</time>
      </trkpt>
      <trkpt lat="45.18358" lon="5.66082">
        <ele>647</ele>
        <time>2011-07-07T06:33:46Z</time>
      </trkpt>
      <trkpt lat="45.18363" lon="5.66077">
        <ele>645</ele>
        <time>2011-07-07T06:33:48Z</time>
      </trkpt>
      <trkpt lat="45.18368" lon="5.66079">
        <ele>638</ele>
        <time>2011-07-07T06:33:52Z</time>
      </trkpt>
      <trkpt lat="45.18366" lon="5.66087">
        <ele>636</ele>
        <time>2011-07-07T06:33:54Z</time>
      </trkpt>
      <trkpt lat="45.18367" lon="5.66096">
        <ele>635</ele>
        <time>2011-07-07T06:33:56Z</time>
      </trkpt>
      <trkpt lat="45.18371" lon="5.66104">
        <ele>634</ele>
        <time>2011-07-07T06:33:58Z</time>
      </trkpt>
      <trkpt lat="45.18375" lon="5.66108">
        <ele>634</ele>
        <time>2011-07-07T06:33:59Z</time>
      </trkpt>
      <trkpt lat="45.18382" lon="5.66114">
        <ele>632</ele>
        <time>2011-07-07T06:34:01Z</time>
      </trkpt>
      <trkpt lat="45.18385" lon="5.6612">
        <ele>631</ele>
        <time>2011-07-07T06:34:02Z</time>
      </trkpt>
      <trkpt lat="45.1839" lon="5.66119">
        <ele>631</ele>
        <time>2011-07-07T06:34:03Z</time>
      </trkpt>
      <trkpt lat="45.18395" lon="5.66121">
        <ele>630</ele>
        <time>2011-07-07T06:34:04Z</time>
      </trkpt>
      <trkpt lat="45.184" lon="5.66125">
        <ele>628</ele>
        <time>2011-07-07T06:34:06Z</time>
      </trkpt>
      <trkpt lat="45.18407" lon="5.66126">
        <ele>627</ele>
        <time>2011-07-07T06:34:09Z</time>
      </trkpt>
      <trkpt lat="45.18407" lon="5.66126">
        <ele>627</ele>
        <time>2011-07-07T06:34:09Z</time>
      </trkpt>
      <trkpt lat="45.18407" lon="5.66126">
        <ele>627</ele>
        <time>2011-07-07T06:34:11Z</time>
      </trkpt>
      <trkpt lat="45.18412" lon="5.66131">
        <ele>621</ele>
        <time>2011-07-07T06:34:16Z</time>
      </trkpt>
      <trkpt lat="45.18419" lon="5.6613">
        <ele>619</ele>
        <time>2011-07-07T06:34:19Z</time>
      </trkpt>
      <trkpt lat="45.18425" lon="5.66132">
        <ele>617</ele>
        <time>2011-07-07T06:34:23Z</time>
      </trkpt>
      <trkpt lat="45.18429" lon="5.66133">
        <ele>616</ele>
        <time>2011-07-07T06:34:25Z</time>
      </trkpt>
      <trkpt lat="45.18434" lon="5.66135">
        <ele>616</ele>
        <time>2011-07-07T06:34:27Z</time>
      </trkpt>
      <trkpt lat="45.1844" lon="5.66134">
        <ele>615</ele>
        <time>2011-07-07T06:34:30Z</time>
      </trkpt>
      <trkpt lat="45.18446" lon="5.66134">
        <ele>615</ele>
        <time>2011-07-07T06:34:32Z</time>
      </trkpt>
      <trkpt lat="45.18452" lon="5.66136">
        <ele>614</ele>
        <time>2011-07-07T06:34:36Z</time>
      </trkpt>
      <trkpt lat="45.18457" lon="5.66138">
        <ele>614</ele>
        <time>2011-07-07T06:34:44Z</time>
      </trkpt>
      <trkpt lat="45.18466" lon="5.66139">
        <ele>610</ele>
        <time>2011-07-07T06:35:42Z</time>
      </trkpt>
      <trkpt lat="45.18472" lon="5.66145">
        <ele>607</ele>
        <time>2011-07-07T06:35:45Z</time>
      </trkpt>
      <trkpt lat="45.18494" lon="5.66149">
        <ele>597</ele>
        <time>2011-07-07T06:37:40Z</time>
      </trkpt>
      <trkpt lat="45.185" lon="5.66149">
        <ele>592</ele>
        <time>2011-07-07T06:37:42Z</time>
      </trkpt>
      <trkpt lat="45.18503" lon="5.66154">
        <ele>588</ele>
        <time>2011-07-07T06:37:46Z</time>
      </trkpt>
      <trkpt lat="45.1851" lon="5.66162">
        <ele>587</ele>
        <time>2011-07-07T06:37:50Z</time>
      </trkpt>
      <trkpt lat="45.18517" lon="5.66188">
        <ele>544</ele>
        <time>2011-07-07T06:38:21Z</time>
      </trkpt>
      <trkpt lat="45.18522" lon="5.66193">
        <ele>547</ele>
        <time>2011-07-07T06:38:25Z</time>
      </trkpt>
      <trkpt lat="45.18527" lon="5.66208">
        <ele>549</ele>
        <time>2011-07-07T06:38:35Z</time>
      </trkpt>
      <trkpt lat="45.18532" lon="5.66219">
        <ele>546</ele>
        <time>2011-07-07T06:38:37Z</time>
      </trkpt>
      <trkpt lat="45.18536" lon="5.66227">
        <ele>545</ele>
        <time>2011-07-07T06:38:38Z</time>
      </trkpt>
      <trkpt lat="45.1854" lon="5.66232">
        <ele>543</ele>
        <time>2011-07-07T06:38:39Z</time>
      </trkpt>
      <trkpt lat="45.18544" lon="5.66236">
        <ele>543</ele>
        <time>2011-07-07T06:38:40Z</time>
      </trkpt>
      <trkpt lat="45.1855" lon="5.66241">
        <ele>542</ele>
        <time>2011-07-07T06:38:41Z</time>
      </trkpt>
      <trkpt lat="45.18552" lon="5.66247">
        <ele>540</ele>
        <time>2011-07-07T06:38:43Z</time>
      </trkpt>
      <trkpt lat="45.1856" lon="5.6625">
        <ele>542</ele>
        <time>2011-07-07T06:38:45Z</time>
      </trkpt>
      <trkpt lat="45.18563" lon="5.66257">
        <ele>542</ele>
        <time>2011-07-07T06:38:48Z</time>
      </trkpt>
      <trkpt lat="45.18563" lon="5.66267">
        <ele>542</ele>
        <time>2011-07-07T06:38:50Z</time>
      </trkpt>
      <trkpt lat="45.18567" lon="5.66272">
        <ele>542</ele>
        <time>2011-07-07T06:38:52Z</time>
      </trkpt>
      <trkpt lat="45.18567" lon="5.66278">
        <ele>546</ele>
        <time>2011-07-07T06:38:53Z</time>
      </trkpt>
      <trkpt lat="45.18572" lon="5.66286">
        <ele>549</ele>
        <time>2011-07-07T06:38:55Z</time>
      </trkpt>
      <trkpt lat="45.18578" lon="5.66284">
        <ele>546</ele>
        <time>2011-07-07T06:38:57Z</time>
      </trkpt>
      <trkpt lat="45.18578" lon="5.66291">
        <ele>546</ele>
        <time>2011-07-07T06:38:59Z</time>
      </trkpt>
      <trkpt lat="45.18583" lon="5.66295">
        <ele>544</ele>
        <time>2011-07-07T06:39:02Z</time>
      </trkpt>
      <trkpt lat="45.18578" lon="5.66301">
        <ele>544</ele>
        <time>2011-07-07T06:39:04Z</time>
      </trkpt>
      <trkpt lat="45.18587" lon="5.66303">
        <ele>543</ele>
        <time>2011-07-07T06:39:06Z</time>
      </trkpt>
      <trkpt lat="45.1859" lon="5.66307">
        <ele>544</ele>
        <time>2011-07-07T06:39:08Z</time>
      </trkpt>
      <trkpt lat="45.18592" lon="5.66313">
        <ele>545</ele>
        <time>2011-07-07T06:39:10Z</time>
      </trkpt>
      <trkpt lat="45.18596" lon="5.66315">
        <ele>544</ele>
        <time>2011-07-07T06:39:12Z</time>
      </trkpt>
      <trkpt lat="45.18602" lon="5.66317">
        <ele>543</ele>
        <time>2011-07-07T06:39:15Z</time>
      </trkpt>
      <trkpt lat="45.18607" lon="5.66318">
        <ele>542</ele>
        <time>2011-07-07T06:39:18Z</time>
      </trkpt>
      <trkpt lat="45.18611" lon="5.66322">
        <ele>542</ele>
        <time>2011-07-07T06:39:21Z</time>
      </trkpt>
      <trkpt lat="45.18616" lon="5.66322">
        <ele>542</ele>
        <time>2011-07-07T06:39:24Z</time>
      </trkpt>
      <trkpt lat="45.18621" lon="5.6632">
        <ele>542</ele>
        <time>2011-07-07T06:39:31Z</time>
      </trkpt>
      <trkpt lat="45.18627" lon="5.66318">
        <ele>540</ele>
        <time>2011-07-07T06:39:38Z</time>
      </trkpt>
      <trkpt lat="45.18633" lon="5.66318">
        <ele>541</ele>
        <time>2011-07-07T06:39:41Z</time>
      </trkpt>
      <trkpt lat="45.1864" lon="5.66315">
        <ele>541</ele>
        <time>2011-07-07T06:39:43Z</time>
      </trkpt>
      <trkpt lat="45.18644" lon="5.66317">
        <ele>541</ele>
        <time>2011-07-07T06:39:45Z</time>
      </trkpt>
      <trkpt lat="45.18651" lon="5.66322">
        <ele>542</ele>
        <time>2011-07-07T06:39:47Z</time>
      </trkpt>
      <trkpt lat="45.18657" lon="5.6632">
        <ele>542</ele>
        <time>2011-07-07T06:39:49Z</time>
      </trkpt>
      <trkpt lat="45.18664" lon="5.66319">
        <ele>542</ele>
        <time>2011-07-07T06:39:51Z</time>
      </trkpt>
      <trkpt lat="45.1867" lon="5.66323">
        <ele>542</ele>
        <time>2011-07-07T06:39:53Z</time>
      </trkpt>
      <trkpt lat="45.18678" lon="5.66324">
        <ele>542</ele>
        <time>2011-07-07T06:39:55Z</time>
      </trkpt>
      <trkpt lat="45.18683" lon="5.66326">
        <ele>542</ele>
        <time>2011-07-07T06:39:56Z</time>
      </trkpt>
      <trkpt lat="45.18687" lon="5.66328">
        <ele>542</ele>
        <time>2011-07-07T06:39:57Z</time>
      </trkpt>
      <trkpt lat="45.18696" lon="5.66332">
        <ele>541</ele>
        <time>2011-07-07T06:39:59Z</time>
      </trkpt>
      <trkpt lat="45.18701" lon="5.66333">
        <ele>540</ele>
        <time>2011-07-07T06:40:00Z</time>
      </trkpt>
      <trkpt lat="45.18707" lon="5.66334">
        <ele>540</ele>
        <time>2011-07-07T06:40:01Z</time>
      </trkpt>
      <trkpt lat="45.18712" lon="5.66338">
        <ele>540</ele>
        <time>2011-07-07T06:40:03Z</time>
      </trkpt>
      <trkpt lat="45.1872" lon="5.66338">
        <ele>541</ele>
        <time>2011-07-07T06:40:05Z</time>
      </trkpt>
      <trkpt lat="45.18726" lon="5.66339">
        <ele>541</ele>
        <time>2011-07-07T06:40:07Z</time>
      </trkpt>
      <trkpt lat="45.18735" lon="5.66338">
        <ele>542</ele>
        <time>2011-07-07T06:40:09Z</time>
      </trkpt>
      <trkpt lat="45.18739" lon="5.66337">
        <ele>541</ele>
        <time>2011-07-07T06:40:11Z</time>
      </trkpt>
      <trkpt lat="45.18744" lon="5.66335">
        <ele>541</ele>
        <time>2011-07-07T06:40:13Z</time>
      </trkpt>
      <trkpt lat="45.18753" lon="5.66333">
        <ele>541</ele>
        <time>2011-07-07T06:40:15Z</time>
      </trkpt>
      <trkpt lat="45.1876" lon="5.66328">
        <ele>541</ele>
        <time>2011-07-07T06:40:17Z</time>
      </trkpt>
      <trkpt lat="45.18764" lon="5.66325">
        <ele>541</ele>
        <time>2011-07-07T06:40:18Z</time>
      </trkpt>
      <trkpt lat="45.18774" lon="5.66318">
        <ele>542</ele>
        <time>2011-07-07T06:40:20Z</time>
      </trkpt>
      <trkpt lat="45.1878" lon="5.66315">
        <ele>542</ele>
        <time>2011-07-07T06:40:21Z</time>
      </trkpt>
      <trkpt lat="45.18788" lon="5.66309">
        <ele>541</ele>
        <time>2011-07-07T06:40:23Z</time>
      </trkpt>
      <trkpt lat="45.18795" lon="5.66304">
        <ele>541</ele>
        <time>2011-07-07T06:40:25Z</time>
      </trkpt>
      <trkpt lat="45.18801" lon="5.66301">
        <ele>540</ele>
        <time>2011-07-07T06:40:26Z</time>
      </trkpt>
      <trkpt lat="45.18805" lon="5.66296">
        <ele>539</ele>
        <time>2011-07-07T06:40:27Z</time>
      </trkpt>
      <trkpt lat="45.1881" lon="5.66291">
        <ele>539</ele>
        <time>2011-07-07T06:40:28Z</time>
      </trkpt>
      <trkpt lat="45.18817" lon="5.66289">
        <ele>539</ele>
        <time>2011-07-07T06:40:30Z</time>
      </trkpt>
      <trkpt lat="45.18825" lon="5.66288">
        <ele>538</ele>
        <time>2011-07-07T06:40:32Z</time>
      </trkpt>
      <trkpt lat="45.18831" lon="5.66293">
        <ele>536</ele>
        <time>2011-07-07T06:40:34Z</time>
      </trkpt>
      <trkpt lat="45.18837" lon="5.66297">
        <ele>535</ele>
        <time>2011-07-07T06:40:36Z</time>
      </trkpt>
      <trkpt lat="45.18841" lon="5.66301">
        <ele>534</ele>
        <time>2011-07-07T06:40:37Z</time>
      </trkpt>
      <trkpt lat="45.18847" lon="5.66304">
        <ele>533</ele>
        <time>2011-07-07T06:40:38Z</time>
      </trkpt>
      <trkpt lat="45.18858" lon="5.66309">
        <ele>534</ele>
        <time>2011-07-07T06:40:40Z</time>
      </trkpt>
      <trkpt lat="45.18864" lon="5.6631">
        <ele>533</ele>
        <time>2011-07-07T06:40:41Z</time>
      </trkpt>
      <trkpt lat="45.18868" lon="5.66312">
        <ele>533</ele>
        <time>2011-07-07T06:40:42Z</time>
      </trkpt>
      <trkpt lat="45.18873" lon="5.66315">
        <ele>532</ele>
        <time>2011-07-07T06:40:43Z</time>
      </trkpt>
      <trkpt lat="45.18886" lon="5.66311">
        <ele>531</ele>
        <time>2011-07-07T06:40:45Z</time>
      </trkpt>
      <trkpt lat="45.18892" lon="5.6631">
        <ele>530</ele>
        <time>2011-07-07T06:40:46Z</time>
      </trkpt>
      <trkpt lat="45.18898" lon="5.66309">
        <ele>530</ele>
        <time>2011-07-07T06:40:47Z</time>
      </trkpt>
      <trkpt lat="45.18902" lon="5.66306">
        <ele>529</ele>
        <time>2011-07-07T06:40:48Z</time>
      </trkpt>
      <trkpt lat="45.18908" lon="5.66304">
        <ele>529</ele>
        <time>2011-07-07T06:40:50Z</time>
      </trkpt>
      <trkpt lat="45.18913" lon="5.663">
        <ele>527</ele>
        <time>2011-07-07T06:40:52Z</time>
      </trkpt>
      <trkpt lat="45.18919" lon="5.66297">
        <ele>525</ele>
        <time>2011-07-07T06:40:54Z</time>
      </trkpt>
      <trkpt lat="45.18928" lon="5.66292">
        <ele>524</ele>
        <time>2011-07-07T06:40:56Z</time>
      </trkpt>
      <trkpt lat="45.18932" lon="5.6629">
        <ele>524</ele>
        <time>2011-07-07T06:40:57Z</time>
      </trkpt>
      <trkpt lat="45.18937" lon="5.66286">
        <ele>524</ele>
        <time>2011-07-07T06:40:59Z</time>
      </trkpt>
      <trkpt lat="45.18943" lon="5.66284">
        <ele>524</ele>
        <time>2011-07-07T06:41:00Z</time>
      </trkpt>
      <trkpt lat="45.1895" lon="5.66284">
        <ele>524</ele>
        <time>2011-07-07T06:41:01Z</time>
      </trkpt>
      <trkpt lat="45.18955" lon="5.66284">
        <ele>524</ele>
        <time>2011-07-07T06:41:02Z</time>
      </trkpt>
      <trkpt lat="45.1896" lon="5.66281">
        <ele>524</ele>
        <time>2011-07-07T06:41:03Z</time>
      </trkpt>
      <trkpt lat="45.18965" lon="5.66278">
        <ele>523</ele>
        <time>2011-07-07T06:41:04Z</time>
      </trkpt>
      <trkpt lat="45.1897" lon="5.66275">
        <ele>522</ele>
        <time>2011-07-07T06:41:05Z</time>
      </trkpt>
      <trkpt lat="45.18975" lon="5.66273">
        <ele>522</ele>
        <time>2011-07-07T06:41:06Z</time>
      </trkpt>
      <trkpt lat="45.18982" lon="5.66271">
        <ele>521</ele>
        <time>2011-07-07T06:41:08Z</time>
      </trkpt>
      <trkpt lat="45.18988" lon="5.6627">
        <ele>521</ele>
        <time>2011-07-07T06:41:09Z</time>
      </trkpt>
      <trkpt lat="45.18994" lon="5.66271">
        <ele>521</ele>
        <time>2011-07-07T06:41:10Z</time>
      </trkpt>
      <trkpt lat="45.19" lon="5.66274">
        <ele>520</ele>
        <time>2011-07-07T06:41:12Z</time>
      </trkpt>
      <trkpt lat="45.19005" lon="5.66273">
        <ele>519</ele>
        <time>2011-07-07T06:41:13Z</time>
      </trkpt>
      <trkpt lat="45.19013" lon="5.6627">
        <ele>518</ele>
        <time>2011-07-07T06:41:15Z</time>
      </trkpt>
      <trkpt lat="45.19018" lon="5.6627">
        <ele>518</ele>
        <time>2011-07-07T06:41:16Z</time>
      </trkpt>
      <trkpt lat="45.19026" lon="5.66268">
        <ele>517</ele>
        <time>2011-07-07T06:41:18Z</time>
      </trkpt>
      <trkpt lat="45.19033" lon="5.66265">
        <ele>515</ele>
        <time>2011-07-07T06:41:21Z</time>
      </trkpt>
      <trkpt lat="45.19036" lon="5.66257">
        <ele>514</ele>
        <time>2011-07-07T06:41:23Z</time>
      </trkpt>
      <trkpt lat="45.1904" lon="5.66252">
        <ele>511</ele>
        <time>2011-07-07T06:41:25Z</time>
      </trkpt>
      <trkpt lat="45.19048" lon="5.66254">
        <ele>508</ele>
        <time>2011-07-07T06:41:28Z</time>
      </trkpt>
      <trkpt lat="45.19055" lon="5.66256">
        <ele>508</ele>
        <time>2011-07-07T06:41:30Z</time>
      </trkpt>
      <trkpt lat="45.19061" lon="5.66258">
        <ele>507</ele>
        <time>2011-07-07T06:41:32Z</time>
      </trkpt>
      <trkpt lat="45.19067" lon="5.66261">
        <ele>507</ele>
        <time>2011-07-07T06:41:34Z</time>
      </trkpt>
      <trkpt lat="45.19074" lon="5.66264">
        <ele>506</ele>
        <time>2011-07-07T06:41:37Z</time>
      </trkpt>
      <trkpt lat="45.19079" lon="5.66264">
        <ele>505</ele>
        <time>2011-07-07T06:41:40Z</time>
      </trkpt>
      <trkpt lat="45.19084" lon="5.66259">
        <ele>505</ele>
        <time>2011-07-07T06:41:41Z</time>
      </trkpt>
      <trkpt lat="45.19091" lon="5.66257">
        <ele>506</ele>
        <time>2011-07-07T06:41:43Z</time>
      </trkpt>
      <trkpt lat="45.19097" lon="5.66251">
        <ele>506</ele>
        <time>2011-07-07T06:41:46Z</time>
      </trkpt>
      <trkpt lat="45.19106" lon="5.66245">
        <ele>505</ele>
        <time>2011-07-07T06:41:48Z</time>
      </trkpt>
      <trkpt lat="45.19112" lon="5.66246">
        <ele>505</ele>
        <time>2011-07-07T06:41:50Z</time>
      </trkpt>
      <trkpt lat="45.19121" lon="5.66246">
        <ele>502</ele>
        <time>2011-07-07T06:41:54Z</time>
      </trkpt>
      <trkpt lat="45.19133" lon="5.66242">
        <ele>501</ele>
        <time>2011-07-07T06:41:56Z</time>
      </trkpt>
      <trkpt lat="45.19147" lon="5.66226">
        <ele>496</ele>
        <time>2011-07-07T06:41:58Z</time>
      </trkpt>
      <trkpt lat="45.19151" lon="5.6623">
        <ele>494</ele>
        <time>2011-07-07T06:42:00Z</time>
      </trkpt>
      <trkpt lat="45.19156" lon="5.6623">
        <ele>494</ele>
        <time>2011-07-07T06:42:02Z</time>
      </trkpt>
      <trkpt lat="45.19162" lon="5.66234">
        <ele>491</ele>
        <time>2011-07-07T06:42:04Z</time>
      </trkpt>
      <trkpt lat="45.19167" lon="5.66234">
        <ele>489</ele>
        <time>2011-07-07T06:42:07Z</time>
      </trkpt>
      <trkpt lat="45.19172" lon="5.66228">
        <ele>487</ele>
        <time>2011-07-07T06:42:09Z</time>
      </trkpt>
      <trkpt lat="45.19168" lon="5.6624">
        <ele>484</ele>
        <time>2011-07-07T06:42:30Z</time>
      </trkpt>
      <trkpt lat="45.19163" lon="5.66243">
        <ele>484</ele>
        <time>2011-07-07T06:42:32Z</time>
      </trkpt>
      <trkpt lat="45.19155" lon="5.66257">
        <ele>479</ele>
        <time>2011-07-07T06:43:38Z</time>
      </trkpt>
      <trkpt lat="45.19144" lon="5.66267">
        <ele>479</ele>
        <time>2011-07-07T06:43:41Z</time>
      </trkpt>
      <trkpt lat="45.19134" lon="5.66275">
        <ele>479</ele>
        <time>2011-07-07T06:43:43Z</time>
      </trkpt>
      <trkpt lat="45.19124" lon="5.66282">
        <ele>479</ele>
        <time>2011-07-07T06:43:46Z</time>
      </trkpt>
      <trkpt lat="45.1911" lon="5.66299">
        <ele>478</ele>
        <time>2011-07-07T06:43:50Z</time>
      </trkpt>
      <trkpt lat="45.19092" lon="5.66317">
        <ele>477</ele>
        <time>2011-07-07T06:43:53Z</time>
      </trkpt>
      <trkpt lat="45.19081" lon="5.66332">
        <ele>477</ele>
        <time>2011-07-07T06:43:56Z</time>
      </trkpt>
      <trkpt lat="45.19073" lon="5.66356">
        <ele>477</ele>
        <time>2011-07-07T06:43:59Z</time>
      </trkpt>
      <trkpt lat="45.19066" lon="5.66379">
        <ele>473</ele>
        <time>2011-07-07T06:44:03Z</time>
      </trkpt>
      <trkpt lat="45.19061" lon="5.66394">
        <ele>472</ele>
        <time>2011-07-07T06:44:05Z</time>
      </trkpt>
      <trkpt lat="45.19059" lon="5.66403">
        <ele>472</ele>
        <time>2011-07-07T06:44:07Z</time>
      </trkpt>
      <trkpt lat="45.19059" lon="5.66412">
        <ele>470</ele>
        <time>2011-07-07T06:44:08Z</time>
      </trkpt>
      <trkpt lat="45.19053" lon="5.66431">
        <ele>470</ele>
        <time>2011-07-07T06:44:11Z</time>
      </trkpt>
      <trkpt lat="45.19059" lon="5.66481">
        <ele>468</ele>
        <time>2011-07-07T06:44:19Z</time>
      </trkpt>
      <trkpt lat="45.19062" lon="5.66495">
        <ele>468</ele>
        <time>2011-07-07T06:44:22Z</time>
      </trkpt>
      <trkpt lat="45.19066" lon="5.66509">
        <ele>468</ele>
        <time>2011-07-07T06:44:26Z</time>
      </trkpt>
      <trkpt lat="45.19093" lon="5.6656">
        <ele>460</ele>
        <time>2011-07-07T06:44:34Z</time>
      </trkpt>
      <trkpt lat="45.19102" lon="5.66559">
        <ele>459</ele>
        <time>2011-07-07T06:44:35Z</time>
      </trkpt>
      <trkpt lat="45.19111" lon="5.66552">
        <ele>457</ele>
        <time>2011-07-07T06:44:36Z</time>
      </trkpt>
      <trkpt lat="45.19118" lon="5.6655">
        <ele>456</ele>
        <time>2011-07-07T06:44:37Z</time>
      </trkpt>
      <trkpt lat="45.19121" lon="5.66556">
        <ele>454</ele>
        <time>2011-07-07T06:44:38Z</time>
      </trkpt>
      <trkpt lat="45.19128" lon="5.66554">
        <ele>453</ele>
        <time>2011-07-07T06:44:39Z</time>
      </trkpt>
      <trkpt lat="45.19135" lon="5.6656">
        <ele>451</ele>
        <time>2011-07-07T06:44:41Z</time>
      </trkpt>
      <trkpt lat="45.19141" lon="5.66564">
        <ele>448</ele>
        <time>2011-07-07T06:44:43Z</time>
      </trkpt>
      <trkpt lat="45.19142" lon="5.66571">
        <ele>447</ele>
        <time>2011-07-07T06:44:45Z</time>
      </trkpt>
      <trkpt lat="45.19147" lon="5.66577">
        <ele>445</ele>
        <time>2011-07-07T06:44:47Z</time>
      </trkpt>
      <trkpt lat="45.1915" lon="5.66584">
        <ele>444</ele>
        <time>2011-07-07T06:44:49Z</time>
      </trkpt>
      <trkpt lat="45.19155" lon="5.66588">
        <ele>441</ele>
        <time>2011-07-07T06:44:51Z</time>
      </trkpt>
      <trkpt lat="45.19161" lon="5.66592">
        <ele>437</ele>
        <time>2011-07-07T06:44:53Z</time>
      </trkpt>
      <trkpt lat="45.19168" lon="5.66596">
        <ele>435</ele>
        <time>2011-07-07T06:44:55Z</time>
      </trkpt>
      <trkpt lat="45.19174" lon="5.666">
        <ele>434</ele>
        <time>2011-07-07T06:44:57Z</time>
      </trkpt>
      <trkpt lat="45.1918" lon="5.66606">
        <ele>431</ele>
        <time>2011-07-07T06:44:59Z</time>
      </trkpt>
      <trkpt lat="45.19185" lon="5.6661">
        <ele>429</ele>
        <time>2011-07-07T06:45:01Z</time>
      </trkpt>
      <trkpt lat="45.19182" lon="5.66618">
        <ele>428</ele>
        <time>2011-07-07T06:45:05Z</time>
      </trkpt>
      <trkpt lat="45.19179" lon="5.66624">
        <ele>427</ele>
        <time>2011-07-07T06:45:07Z</time>
      </trkpt>
      <trkpt lat="45.19175" lon="5.66628">
        <ele>426</ele>
        <time>2011-07-07T06:45:09Z</time>
      </trkpt>
      <trkpt lat="45.19171" lon="5.66636">
        <ele>424</ele>
        <time>2011-07-07T06:45:11Z</time>
      </trkpt>
      <trkpt lat="45.19171" lon="5.66646">
        <ele>423</ele>
        <time>2011-07-07T06:45:14Z</time>
      </trkpt>
      <trkpt lat="45.19169" lon="5.66657">
        <ele>422</ele>
        <time>2011-07-07T06:45:17Z</time>
      </trkpt>
      <trkpt lat="45.19165" lon="5.66662">
        <ele>422</ele>
        <time>2011-07-07T06:45:19Z</time>
      </trkpt>
      <trkpt lat="45.19165" lon="5.66671">
        <ele>420</ele>
        <time>2011-07-07T06:45:22Z</time>
      </trkpt>
      <trkpt lat="45.19166" lon="5.66677">
        <ele>420</ele>
        <time>2011-07-07T06:45:24Z</time>
      </trkpt>
      <trkpt lat="45.19164" lon="5.66683">
        <ele>419</ele>
        <time>2011-07-07T06:45:26Z</time>
      </trkpt>
      <trkpt lat="45.19164" lon="5.6669">
        <ele>419</ele>
        <time>2011-07-07T06:45:28Z</time>
      </trkpt>
      <trkpt lat="45.19163" lon="5.66701">
        <ele>417</ele>
        <time>2011-07-07T06:45:31Z</time>
      </trkpt>
      <trkpt lat="45.19161" lon="5.66709">
        <ele>416</ele>
        <time>2011-07-07T06:45:33Z</time>
      </trkpt>
      <trkpt lat="45.19157" lon="5.66714">
        <ele>415</ele>
        <time>2011-07-07T06:45:34Z</time>
      </trkpt>
      <trkpt lat="45.19156" lon="5.66721">
        <ele>415</ele>
        <time>2011-07-07T06:45:35Z</time>
      </trkpt>
      <trkpt lat="45.19157" lon="5.66732">
        <ele>415</ele>
        <time>2011-07-07T06:45:37Z</time>
      </trkpt>
      <trkpt lat="45.19161" lon="5.6674">
        <ele>413</ele>
        <time>2011-07-07T06:45:39Z</time>
      </trkpt>
      <trkpt lat="45.19164" lon="5.66746">
        <ele>412</ele>
        <time>2011-07-07T06:45:40Z</time>
      </trkpt>
      <trkpt lat="45.19167" lon="5.66756">
        <ele>408</ele>
        <time>2011-07-07T06:45:42Z</time>
      </trkpt>
      <trkpt lat="45.19171" lon="5.66762">
        <ele>407</ele>
        <time>2011-07-07T06:45:44Z</time>
      </trkpt>
      <trkpt lat="45.19177" lon="5.66768">
        <ele>406</ele>
        <time>2011-07-07T06:45:46Z</time>
      </trkpt>
      <trkpt lat="45.19182" lon="5.66772">
        <ele>404</ele>
        <time>2011-07-07T06:45:48Z</time>
      </trkpt>
      <trkpt lat="45.19187" lon="5.66777">
        <ele>401</ele>
        <time>2011-07-07T06:45:51Z</time>
      </trkpt>
      <trkpt lat="45.19194" lon="5.66781">
        <ele>399</ele>
        <time>2011-07-07T06:45:54Z</time>
      </trkpt>
      <trkpt lat="45.192" lon="5.66783">
        <ele>397</ele>
        <time>2011-07-07T06:45:56Z</time>
      </trkpt>
      <trkpt lat="45.19205" lon="5.66787">
        <ele>396</ele>
        <time>2011-07-07T06:45:59Z</time>
      </trkpt>
      <trkpt lat="45.19209" lon="5.66791">
        <ele>396</ele>
        <time>2011-07-07T06:46:01Z</time>
      </trkpt>
      <trkpt lat="45.1921" lon="5.668">
        <ele>392</ele>
        <time>2011-07-07T06:46:23Z</time>
      </trkpt>
      <trkpt lat="45.19214" lon="5.66803">
        <ele>390</ele>
        <time>2011-07-07T06:46:24Z</time>
      </trkpt>
      <trkpt lat="45.19221" lon="5.66809">
        <ele>388</ele>
        <time>2011-07-07T06:46:26Z</time>
      </trkpt>
      <trkpt lat="45.19225" lon="5.66805">
        <ele>388</ele>
        <time>2011-07-07T06:46:27Z</time>
      </trkpt>
      <trkpt lat="45.19231" lon="5.66803">
        <ele>387</ele>
        <time>2011-07-07T06:46:30Z</time>
      </trkpt>
      <trkpt lat="45.19237" lon="5.66797">
        <ele>383</ele>
        <time>2011-07-07T06:46:34Z</time>
      </trkpt>
      <trkpt lat="45.19242" lon="5.66792">
        <ele>378</ele>
        <time>2011-07-07T06:46:40Z</time>
      </trkpt>
      <trkpt lat="45.19246" lon="5.66789">
        <ele>377</ele>
        <time>2011-07-07T06:46:42Z</time>
      </trkpt>
      <trkpt lat="45.19253" lon="5.66784">
        <ele>375</ele>
        <time>2011-07-07T06:46:45Z</time>
      </trkpt>
      <trkpt lat="45.19259" lon="5.66776">
        <ele>374</ele>
        <time>2011-07-07T06:46:47Z</time>
      </trkpt>
      <trkpt lat="45.19261" lon="5.6677">
        <ele>374</ele>
        <time>2011-07-07T06:46:51Z</time>
      </trkpt>
      <trkpt lat="45.19265" lon="5.66765">
        <ele>374</ele>
        <time>2011-07-07T06:46:55Z</time>
      </trkpt>
      <trkpt lat="45.19268" lon="5.66759">
        <ele>374</ele>
        <time>2011-07-07T06:46:58Z</time>
      </trkpt>
      <trkpt lat="45.19268" lon="5.66752">
        <ele>374</ele>
        <time>2011-07-07T06:47:01Z</time>
      </trkpt>
      <trkpt lat="45.19272" lon="5.66742">
        <ele>374</ele>
        <time>2011-07-07T06:47:05Z</time>
      </trkpt>
      <trkpt lat="45.19267" lon="5.6672">
        <ele>374</ele>
        <time>2011-07-07T06:47:13Z</time>
      </trkpt>
      <trkpt lat="45.1926" lon="5.66705">
        <ele>374</ele>
        <time>2011-07-07T06:47:14Z</time>
      </trkpt>
      <trkpt lat="45.1927" lon="5.66709">
        <ele>374</ele>
        <time>2011-07-07T06:47:16Z</time>
      </trkpt>
      <trkpt lat="45.19265" lon="5.66709">
        <ele>374</ele>
        <time>2011-07-07T06:49:36Z</time>
      </trkpt>
      <trkpt lat="45.19284" lon="5.66721">
        <ele>369</ele>
        <time>2011-07-07T06:49:39Z</time>
      </trkpt>
      <trkpt lat="45.19297" lon="5.66717">
        <ele>371</ele>
        <time>2011-07-07T06:49:41Z</time>
      </trkpt>
      <trkpt lat="45.19295" lon="5.6671">
        <ele>368</ele>
        <time>2011-07-07T06:49:44Z</time>
      </trkpt>
      <trkpt lat="45.19302" lon="5.66708">
        <ele>367</ele>
        <time>2011-07-07T06:49:46Z</time>
      </trkpt>
      <trkpt lat="45.19305" lon="5.667">
        <ele>365</ele>
        <time>2011-07-07T06:49:48Z</time>
      </trkpt>
      <trkpt lat="45.19311" lon="5.66698">
        <ele>364</ele>
        <time>2011-07-07T06:50:07Z</time>
      </trkpt>
      <trkpt lat="45.19311" lon="5.66691">
        <ele>359</ele>
        <time>2011-07-07T06:50:11Z</time>
      </trkpt>
      <trkpt lat="45.19316" lon="5.66686">
        <ele>357</ele>
        <time>2011-07-07T06:50:14Z</time>
      </trkpt>
      <trkpt lat="45.19322" lon="5.66682">
        <ele>353</ele>
        <time>2011-07-07T06:50:17Z</time>
      </trkpt>
      <trkpt lat="45.1933" lon="5.66679">
        <ele>350</ele>
        <time>2011-07-07T06:50:19Z</time>
      </trkpt>
      <trkpt lat="45.19336" lon="5.66674">
        <ele>349</ele>
        <time>2011-07-07T06:50:21Z</time>
      </trkpt>
      <trkpt lat="45.19341" lon="5.66669">
        <ele>349</ele>
        <time>2011-07-07T06:50:22Z</time>
      </trkpt>
      <trkpt lat="45.19346" lon="5.66667">
        <ele>348</ele>
        <time>2011-07-07T06:50:23Z</time>
      </trkpt>
      <trkpt lat="45.19354" lon="5.66664">
        <ele>346</ele>
        <time>2011-07-07T06:50:25Z</time>
      </trkpt>
      <trkpt lat="45.1936" lon="5.66665">
        <ele>340</ele>
        <time>2011-07-07T06:50:27Z</time>
      </trkpt>
      <trkpt lat="45.19375" lon="5.66673">
        <ele>338</ele>
        <time>2011-07-07T06:50:30Z</time>
      </trkpt>
      <trkpt lat="45.19381" lon="5.66678">
        <ele>336</ele>
        <time>2011-07-07T06:50:31Z</time>
      </trkpt>
      <trkpt lat="45.19385" lon="5.66681">
        <ele>335</ele>
        <time>2011-07-07T06:50:32Z</time>
      </trkpt>
      <trkpt lat="45.19391" lon="5.66684">
        <ele>334</ele>
        <time>2011-07-07T06:50:33Z</time>
      </trkpt>
      <trkpt lat="45.19396" lon="5.66688">
        <ele>333</ele>
        <time>2011-07-07T06:50:34Z</time>
      </trkpt>
      <trkpt lat="45.194" lon="5.6669">
        <ele>332</ele>
        <time>2011-07-07T06:50:35Z</time>
      </trkpt>
      <trkpt lat="45.19406" lon="5.66691">
        <ele>331</ele>
        <time>2011-07-07T06:50:36Z</time>
      </trkpt>
      <trkpt lat="45.19412" lon="5.66696">
        <ele>330</ele>
        <time>2011-07-07T06:50:38Z</time>
      </trkpt>
      <trkpt lat="45.19418" lon="5.667">
        <ele>329</ele>
        <time>2011-07-07T06:50:40Z</time>
      </trkpt>
      <trkpt lat="45.19423" lon="5.66697">
        <ele>324</ele>
        <time>2011-07-07T06:50:42Z</time>
      </trkpt>
      <trkpt lat="45.19428" lon="5.66696">
        <ele>322</ele>
        <time>2011-07-07T06:50:44Z</time>
      </trkpt>
      <trkpt lat="45.19435" lon="5.66694">
        <ele>321</ele>
        <time>2011-07-07T06:50:46Z</time>
      </trkpt>
      <trkpt lat="45.19439" lon="5.66702">
        <ele>317</ele>
        <time>2011-07-07T06:50:48Z</time>
      </trkpt>
      <trkpt lat="45.19444" lon="5.66702">
        <ele>312</ele>
        <time>2011-07-07T06:50:52Z</time>
      </trkpt>
      <trkpt lat="45.19452" lon="5.66707">
        <ele>308</ele>
        <time>2011-07-07T06:50:55Z</time>
      </trkpt>
      <trkpt lat="45.19458" lon="5.66713">
        <ele>305</ele>
        <time>2011-07-07T06:50:57Z</time>
      </trkpt>
      <trkpt lat="45.19463" lon="5.66718">
        <ele>304</ele>
        <time>2011-07-07T06:50:58Z</time>
      </trkpt>
      <trkpt lat="45.19467" lon="5.66723">
        <ele>303</ele>
        <time>2011-07-07T06:50:59Z</time>
      </trkpt>
      <trkpt lat="45.19473" lon="5.66729">
        <ele>301</ele>
        <time>2011-07-07T06:51:00Z</time>
      </trkpt>
      <trkpt lat="45.19477" lon="5.66734">
        <ele>298</ele>
        <time>2011-07-07T06:51:01Z</time>
      </trkpt>
      <trkpt lat="45.19484" lon="5.6674">
        <ele>298</ele>
        <time>2011-07-07T06:51:02Z</time>
      </trkpt>
      <trkpt lat="45.19488" lon="5.66748">
        <ele>297</ele>
        <time>2011-07-07T06:51:03Z</time>
      </trkpt>
      <trkpt lat="45.19492" lon="5.66757">
        <ele>294</ele>
        <time>2011-07-07T06:51:04Z</time>
      </trkpt>
      <trkpt lat="45.19494" lon="5.66765">
        <ele>292</ele>
        <time>2011-07-07T06:51:05Z</time>
      </trkpt>
      <trkpt lat="45.19498" lon="5.66774">
        <ele>288</ele>
        <time>2011-07-07T06:51:07Z</time>
      </trkpt>
      <trkpt lat="45.19501" lon="5.66786">
        <ele>287</ele>
        <time>2011-07-07T06:51:09Z</time>
      </trkpt>
      <trkpt lat="45.19503" lon="5.66793">
        <ele>286</ele>
        <time>2011-07-07T06:51:10Z</time>
      </trkpt>
      <trkpt lat="45.19503" lon="5.66799">
        <ele>285</ele>
        <time>2011-07-07T06:51:11Z</time>
      </trkpt>
      <trkpt lat="45.19502" lon="5.66806">
        <ele>279</ele>
        <time>2011-07-07T06:51:15Z</time>
      </trkpt>
    </trkseg>
  </trk>
</gpx>